Observation data for Sweetwater on 08/13/2019      Previous  Date  Next       Current Mesonet Observations  Soil Data  Daily Summary Page  Observations in Plain Language
KSW1 130500Z 16013KT 31/14 A2992 RMK A01 T03130142  RH  035%=      5-min Rain = 0
KSW1 130501Z 16015KT 31/14 A2992 RMK A01 T03130143  RH  036%=      5-min Rain = 0
KSW1 130502Z 16014KT 31/14 A2992 RMK A01 T03130142  RH  036%=      5-min Rain = 0
KSW1 130503Z 16015G20KT 31/14 A2992 RMK A01 T03130143  RH  036%=      5-min Rain = 0
KSW1 130504Z 16015KT 31/14 A2992 RMK A01 T03130143  RH  036%=      5-min Rain = 0
KSW1 130505Z 16014G19KT 31/14 A2992 RMK A01 T03130143  RH  036%=      5-min Rain = 0
KSW1 130506Z 16012KT 31/14 A2992 RMK A01 T03120143  RH  036%=      5-min Rain = 0
KSW1 130507Z 15011G19KT 31/14 A2992 RMK A01 T03120143  RH  036%=      5-min Rain = 0
KSW1 130508Z 16015G20KT 31/14 A2992 RMK A01 T03110143  RH  036%=      5-min Rain = 0
KSW1 130509Z 16014KT 31/14 A2992 RMK A01 T03110143  RH  036%=      5-min Rain = 0
KSW1 130510Z 15014G19KT 31/14 A2992 RMK A01 T03120144  RH  036%=      5-min Rain = 0
KSW1 130511Z 16017KT 31/14 A2992 RMK A01 T03110144  RH  036%=      5-min Rain = 0
KSW1 130512Z 16017KT 31/14 A2992 RMK A01 T03120144  RH  036%=      5-min Rain = 0
KSW1 130513Z 16014KT 31/14 A2992 RMK A01 T03130144  RH  036%=      5-min Rain = 0
KSW1 130514Z 16015G21KT 31/14 A2992 RMK A01 T03120144  RH  036%=      5-min Rain = 0
KSW1 130515Z 16016KT 31/14 A2992 RMK A01 T03120144  RH  036%=      5-min Rain = 0
KSW1 130516Z 16015KT 31/15 A2992 RMK A01 T03120145  RH  036%=      5-min Rain = 0
KSW1 130517Z 16015KT 31/15 A2992 RMK A01 T03120145  RH  036%=      5-min Rain = 0
KSW1 130518Z 16016KT 31/15 A2992 RMK A01 T03120145  RH  036%=      5-min Rain = 0
KSW1 130519Z 16015KT 31/15 A2992 RMK A01 T03120145  RH  036%=      5-min Rain = 0
KSW1 130520Z 16015KT 31/15 A2992 RMK A01 T03120145  RH  036%=      5-min Rain = 0
KSW1 130521Z 16013KT 31/15 A2992 RMK A01 T03120145  RH  036%=      5-min Rain = 0
KSW1 130522Z 16014KT 31/15 A2992 RMK A01 T03120145  RH  036%=      5-min Rain = 0
KSW1 130523Z 16013KT 31/15 A2992 RMK A01 T03120145  RH  036%=      5-min Rain = 0
KSW1 130524Z 16013KT 31/15 A2992 RMK A01 T03110145  RH  036%=      5-min Rain = 0
KSW1 130525Z 16014KT 31/15 A2992 RMK A01 T03110145  RH  037%=      5-min Rain = 0
KSW1 130526Z 16015KT 31/15 A2992 RMK A01 T03100145  RH  037%=      5-min Rain = 0
KSW1 130527Z 16015KT 31/15 A2992 RMK A01 T03100145  RH  037%=      5-min Rain = 0
KSW1 130528Z 16015KT 31/15 A2992 RMK A01 T03110145  RH  037%=      5-min Rain = 0
KSW1 130529Z 16014KT 31/15 A2992 RMK A01 T03110145  RH  037%=      5-min Rain = 0
KSW1 130530Z 16013G18KT 31/15 A2992 RMK A01 T03110146  RH  037%=      5-min Rain = 0
KSW1 130531Z 16014KT 31/15 A2992 RMK A01 T03100145  RH  037%=      5-min Rain = 0
KSW1 130532Z 16012KT 31/15 A2992 RMK A01 T03100146  RH  037%=      5-min Rain = 0
KSW1 130533Z 16014KT 31/15 A2992 RMK A01 T03090146  RH  037%=      5-min Rain = 0
KSW1 130534Z 16013KT 31/15 A2992 RMK A01 T03090146  RH  037%=      5-min Rain = 0
KSW1 130535Z 16013KT 31/15 A2992 RMK A01 T03080145  RH  037%=      5-min Rain = 0
KSW1 130536Z 16015KT 31/15 A2992 RMK A01 T03090145  RH  037%=      5-min Rain = 0
KSW1 130537Z 16015KT 31/15 A2992 RMK A01 T03080145  RH  037%=      5-min Rain = 0
KSW1 130538Z 16014G20KT 31/15 A2992 RMK A01 T03090145  RH  037%=      5-min Rain = 0
KSW1 130539Z 16014KT 31/15 A2992 RMK A01 T03090145  RH  037%=      5-min Rain = 0
KSW1 130540Z 16013KT 31/15 A2992 RMK A01 T03090146  RH  037%=      5-min Rain = 0
KSW1 130541Z 16012KT 31/15 A2992 RMK A01 T03090146  RH  037%=      5-min Rain = 0
KSW1 130542Z 16014KT 31/15 A2992 RMK A01 T03090146  RH  037%=      5-min Rain = 0
KSW1 130543Z 17015KT 31/15 A2992 RMK A01 T03080146  RH  037%=      5-min Rain = 0
KSW1 130544Z 16013KT 31/15 A2992 RMK A01 T03080145  RH  037%=      5-min Rain = 0
KSW1 130545Z 17016KT 31/15 A2992 RMK A01 T03090145  RH  037%=      5-min Rain = 0
KSW1 130546Z 16013KT 31/15 A2992 RMK A01 T03090145  RH  037%=      5-min Rain = 0
KSW1 130547Z 16013KT 31/15 A2992 RMK A01 T03090146  RH  037%=      5-min Rain = 0
KSW1 130548Z 17012KT 31/15 A2992 RMK A01 T03090146  RH  037%=      5-min Rain = 0
KSW1 130549Z 17014KT 31/15 A2992 RMK A01 T03080145  RH  037%=      5-min Rain = 0
KSW1 130550Z 17014KT 31/15 A2992 RMK A01 T03080145  RH  037%=      5-min Rain = 0
KSW1 130551Z 16012G18KT 31/15 A2993 RMK A01 T03090145  RH  037%=      5-min Rain = 0
KSW1 130552Z 17014KT 31/15 A2992 RMK A01 T03090145  RH  037%=      5-min Rain = 0
KSW1 130553Z 17015KT 31/15 A2993 RMK A01 T03090145  RH  037%=      5-min Rain = 0
KSW1 130554Z 17013KT 31/15 A2992 RMK A01 T03100145  RH  037%=      5-min Rain = 0
KSW1 130555Z 17012G17KT 31/14 A2992 RMK A01 T03090144  RH  037%=      5-min Rain = 0
KSW1 130556Z 17014KT 31/15 A2993 RMK A01 T03090145  RH  037%=      5-min Rain = 0
KSW1 130557Z 17014KT 31/15 A2993 RMK A01 T03100145  RH  037%=      5-min Rain = 0
KSW1 130558Z 16014G19KT 31/15 A2992 RMK A01 T03090145  RH  037%=      5-min Rain = 0
KSW1 130559Z 16014KT 31/14 A2992 RMK A01 T03090144  RH  037%=      5-min Rain = 0
KSW1 130600Z 17012KT 31/14 A2992 RMK A01 T03090144  RH  037%=      5-min Rain = 0
KSW1 130601Z 16015KT 31/15 A2992 RMK A01 T03090145  RH  037%=      5-min Rain = 0
KSW1 130602Z 16016KT 31/15 A2992 RMK A01 T03090145  RH  037%=      5-min Rain = 0
KSW1 130603Z 17015KT 31/14 A2992 RMK A01 T03090144  RH  037%=      5-min Rain = 0
KSW1 130604Z 17013G18KT 31/14 A2992 RMK A01 T03090144  RH  037%=      5-min Rain = 0
KSW1 130605Z 17014KT 31/15 A2992 RMK A01 T03090145  RH  037%=      5-min Rain = 0
KSW1 130606Z 16015KT 31/15 A2992 RMK A01 T03090145  RH  037%=      5-min Rain = 0
KSW1 130607Z 17013KT 31/15 A2992 RMK A01 T03090145  RH  037%=      5-min Rain = 0
KSW1 130608Z 16014KT 31/15 A2992 RMK A01 T03090145  RH  037%=      5-min Rain = 0
KSW1 130609Z 16016KT 31/15 A2992 RMK A01 T03090145  RH  037%=      5-min Rain = 0
KSW1 130610Z 17015G20KT 31/15 A2992 RMK A01 T03090145  RH  037%=      5-min Rain = 0
KSW1 130611Z 17013KT 31/15 A2992 RMK A01 T03090146  RH  037%=      5-min Rain = 0
KSW1 130612Z 17014KT 31/15 A2992 RMK A01 T03090146  RH  037%=      5-min Rain = 0
KSW1 130613Z 17014KT 31/15 A2992 RMK A01 T03090146  RH  037%=      5-min Rain = 0
KSW1 130614Z 17014KT 31/15 A2992 RMK A01 T03080146  RH  037%=      5-min Rain = 0
KSW1 130615Z 16014KT 31/15 A2992 RMK A01 T03080146  RH  037%=      5-min Rain = 0
KSW1 130616Z 16016KT 31/15 A2992 RMK A01 T03080147  RH  038%=      5-min Rain = 0
KSW1 130617Z 17015KT 31/15 A2992 RMK A01 T03070147  RH  038%=      5-min Rain = 0
KSW1 130618Z 17014KT 31/15 A2992 RMK A01 T03070147  RH  038%=      5-min Rain = 0
KSW1 130619Z 17014KT 31/15 A2992 RMK A01 T03080148  RH  038%=      5-min Rain = 0
KSW1 130620Z 17015KT 31/15 A2992 RMK A01 T03080148  RH  038%=      5-min Rain = 0
KSW1 130621Z 16014KT 31/15 A2992 RMK A01 T03080148  RH  038%=      5-min Rain = 0
KSW1 130622Z 17013KT 31/15 A2992 RMK A01 T03070148  RH  038%=      5-min Rain = 0
KSW1 130623Z 17014KT 31/15 A2992 RMK A01 T03070148  RH  038%=      5-min Rain = 0
KSW1 130624Z 17014KT 31/15 A2992 RMK A01 T03070148  RH  038%=      5-min Rain = 0
KSW1 130625Z 16012KT 31/15 A2992 RMK A01 T03070149  RH  038%=      5-min Rain = 0
KSW1 130626Z 17015KT 31/15 A2992 RMK A01 T03070149  RH  038%=      5-min Rain = 0
KSW1 130627Z 17013KT 31/15 A2992 RMK A01 T03070150  RH  039%=      5-min Rain = 0
KSW1 130628Z 17014KT 31/15 A2992 RMK A01 T03060150  RH  039%=      5-min Rain = 0
KSW1 130629Z 17013KT 31/15 A2992 RMK A01 T03060150  RH  039%=      5-min Rain = 0
KSW1 130630Z 17014KT 31/15 A2992 RMK A01 T03060150  RH  039%=      5-min Rain = 0
KSW1 130631Z 17013G18KT 31/15 A2992 RMK A01 T03060150  RH  039%=      5-min Rain = 0
KSW1 130632Z 17012KT 31/15 A2992 RMK A01 T03060151  RH  039%=      5-min Rain = 0
KSW1 130633Z 17014KT 31/15 A2992 RMK A01 T03060151  RH  039%=      5-min Rain = 0
KSW1 130634Z 16013KT 31/15 A2992 RMK A01 T03050151  RH  039%=      5-min Rain = 0
KSW1 130635Z 17012KT 31/15 A2992 RMK A01 T03050151  RH  039%=      5-min Rain = 0
KSW1 130636Z 17013KT 31/15 A2992 RMK A01 T03050151  RH  039%=      5-min Rain = 0
KSW1 130637Z 17012KT 30/15 A2992 RMK A01 T03040152  RH  040%=      5-min Rain = 0
KSW1 130638Z 17014KT 31/15 A2992 RMK A01 T03050152  RH  040%=      5-min Rain = 0
KSW1 130639Z 17013KT 31/15 A2992 RMK A01 T03050152  RH  040%=      5-min Rain = 0
KSW1 130640Z 17012KT 31/15 A2992 RMK A01 T03050152  RH  040%=      5-min Rain = 0
KSW1 130641Z 17013KT 31/15 A2992 RMK A01 T03050152  RH  040%=      5-min Rain = 0
KSW1 130642Z 17013KT 30/15 A2992 RMK A01 T03040152  RH  040%=      5-min Rain = 0
KSW1 130643Z 17012KT 30/15 A2992 RMK A01 T03040153  RH  040%=      5-min Rain = 0
KSW1 130644Z 17013KT 30/15 A2992 RMK A01 T03040153  RH  040%=      5-min Rain = 0
KSW1 130645Z 16013KT 30/15 A2992 RMK A01 T03040153  RH  040%=      5-min Rain = 0
KSW1 130646Z 17012KT 30/15 A2992 RMK A01 T03040153  RH  040%=      5-min Rain = 0
KSW1 130647Z 17014KT 30/15 A2992 RMK A01 T03030154  RH  040%=      5-min Rain = 0
KSW1 130648Z 17013KT 30/15 A2992 RMK A01 T03030154  RH  040%=      5-min Rain = 0
KSW1 130649Z 17013KT 30/15 A2992 RMK A01 T03030154  RH  040%=      5-min Rain = 0
KSW1 130650Z 17013KT 30/15 A2992 RMK A01 T03030154  RH  040%=      5-min Rain = 0
KSW1 130651Z 17013KT 30/15 A2992 RMK A01 T03030154  RH  040%=      5-min Rain = 0
KSW1 130652Z 17013KT 30/15 A2992 RMK A01 T03030154  RH  040%=      5-min Rain = 0
KSW1 130653Z 17013KT 30/15 A2992 RMK A01 T03030154  RH  041%=      5-min Rain = 0
KSW1 130654Z 17014KT 30/16 A2992 RMK A01 T03030155  RH  041%=      5-min Rain = 0
KSW1 130655Z 17013KT 30/16 A2992 RMK A01 T03030155  RH  041%=      5-min Rain = 0
KSW1 130656Z 17015G20KT 30/16 A2992 RMK A01 T03020155  RH  041%=      5-min Rain = 0
KSW1 130657Z 17012KT 30/16 A2992 RMK A01 T03020155  RH  041%=      5-min Rain = 0
KSW1 130658Z 17013KT 30/16 A2992 RMK A01 T03020155  RH  041%=      5-min Rain = 0
KSW1 130659Z 17011KT 30/16 A2992 RMK A01 T03020155  RH  041%=      5-min Rain = 0
KSW1 130700Z 17011KT 30/16 A2992 RMK A01 T03020155  RH  041%=      5-min Rain = 0
KSW1 130701Z 17010KT 30/16 A2992 RMK A01 T03010155  RH  041%=      5-min Rain = 0
KSW1 130702Z 17011KT 30/16 A2992 RMK A01 T03000156  RH  042%=      5-min Rain = 0
KSW1 130703Z 17011KT 30/16 A2992 RMK A01 T03000156  RH  042%=      5-min Rain = 0
KSW1 130704Z 17011G17KT 30/16 A2992 RMK A01 T03000156  RH  042%=      5-min Rain = 0
KSW1 130705Z 17014KT 30/16 A2992 RMK A01 T03000156  RH  042%=      5-min Rain = 0
KSW1 130706Z 17011KT 30/16 A2992 RMK A01 T03000156  RH  042%=      5-min Rain = 0
KSW1 130707Z 17012KT 30/16 A2992 RMK A01 T03000156  RH  042%=      5-min Rain = 0
KSW1 130708Z 16010KT 30/16 A2992 RMK A01 T03000157  RH  042%=      5-min Rain = 0
KSW1 130709Z 17010KT 30/16 A2992 RMK A01 T02990157  RH  042%=      5-min Rain = 0
KSW1 130710Z 17012KT 30/16 A2992 RMK A01 T02990157  RH  042%=      5-min Rain = 0
KSW1 130711Z 17011KT 30/16 A2992 RMK A01 T02990157  RH  042%=      5-min Rain = 0
KSW1 130712Z 17011KT 30/16 A2992 RMK A01 T02980157  RH  042%=      5-min Rain = 0
KSW1 130713Z 17012KT 30/16 A2992 RMK A01 T02980157  RH  042%=      5-min Rain = 0
KSW1 130714Z 17012KT 30/16 A2992 RMK A01 T02980157  RH  042%=      5-min Rain = 0
KSW1 130715Z 17011KT 30/16 A2992 RMK A01 T02980157  RH  042%=      5-min Rain = 0
KSW1 130716Z 17009KT 30/16 A2992 RMK A01 T02980157  RH  042%=      5-min Rain = 0
KSW1 130717Z 17011KT 30/16 A2992 RMK A01 T02980158  RH  043%=      5-min Rain = 0
KSW1 130718Z 17011KT 30/16 A2992 RMK A01 T02980158  RH  043%=      5-min Rain = 0
KSW1 130719Z 17010KT 30/16 A2992 RMK A01 T02970158  RH  043%=      5-min Rain = 0
KSW1 130720Z 17011KT 30/16 A2992 RMK A01 T02970158  RH  043%=      5-min Rain = 0
KSW1 130721Z 17011KT 30/16 A2992 RMK A01 T02970158  RH  043%=      5-min Rain = 0
KSW1 130722Z 17010KT 30/16 A2992 RMK A01 T02970158  RH  043%=      5-min Rain = 0
KSW1 130723Z 17010KT 30/16 A2992 RMK A01 T02970159  RH  043%=      5-min Rain = 0
KSW1 130724Z 17011KT 30/16 A2992 RMK A01 T02960159  RH  043%=      5-min Rain = 0
KSW1 130725Z 17010KT 30/16 A2992 RMK A01 T02960159  RH  043%=      5-min Rain = 0
KSW1 130726Z 17011KT 30/16 A2992 RMK A01 T02960159  RH  044%=      5-min Rain = 0
KSW1 130727Z 17010KT 30/16 A2992 RMK A01 T02960160  RH  044%=      5-min Rain = 0
KSW1 130728Z 17011KT 30/16 A2992 RMK A01 T02960160  RH  044%=      5-min Rain = 0
KSW1 130729Z 17012KT 30/16 A2992 RMK A01 T02960160  RH  044%=      5-min Rain = 0
KSW1 130730Z 17011KT 30/16 A2992 RMK A01 T02960160  RH  044%=      5-min Rain = 0
KSW1 130731Z 17012KT 30/16 A2992 RMK A01 T02960160  RH  044%=      5-min Rain = 0
KSW1 130732Z 17010KT 30/16 A2992 RMK A01 T02960160  RH  044%=      5-min Rain = 0
KSW1 130733Z 17012KT 30/16 A2992 RMK A01 T02960160  RH  044%=      5-min Rain = 0
KSW1 130734Z 17011KT 30/16 A2992 RMK A01 T02960161  RH  044%=      5-min Rain = 0
KSW1 130735Z 17012KT 30/16 A2992 RMK A01 T02950161  RH  044%=      5-min Rain = 0
KSW1 130736Z 18011KT 30/16 A2992 RMK A01 T02950161  RH  044%=      5-min Rain = 0
KSW1 130737Z 17009G14KT 30/16 A2992 RMK A01 T02950161  RH  044%=      5-min Rain = 0
KSW1 130738Z 17012KT 30/16 A2992 RMK A01 T02950161  RH  044%=      5-min Rain = 0
KSW1 130739Z 17010KT 29/16 A2992 RMK A01 T02940161  RH  044%=      5-min Rain = 0
KSW1 130740Z 17012KT 30/16 A2992 RMK A01 T02950162  RH  045%=      5-min Rain = 0
KSW1 130741Z 17011KT 29/16 A2992 RMK A01 T02940161  RH  045%=      5-min Rain = 0
KSW1 130742Z 18010KT 29/16 A2992 RMK A01 T02940161  RH  045%=      5-min Rain = 0
KSW1 130743Z 18010KT 29/16 A2992 RMK A01 T02940162  RH  045%=      5-min Rain = 0
KSW1 130744Z 17012KT 29/16 A2992 RMK A01 T02930162  RH  045%=      5-min Rain = 0
KSW1 130745Z 17010KT 29/16 A2992 RMK A01 T02930161  RH  045%=      5-min Rain = 0
KSW1 130746Z 17010KT 29/16 A2992 RMK A01 T02930162  RH  045%=      5-min Rain = 0
KSW1 130747Z 17013KT 29/16 A2992 RMK A01 T02920162  RH  045%=      5-min Rain = 0
KSW1 130748Z 17011KT 29/16 A2992 RMK A01 T02930162  RH  045%=      5-min Rain = 0
KSW1 130749Z 18013KT 29/16 A2992 RMK A01 T02930162  RH  045%=      5-min Rain = 0
KSW1 130750Z 17010G15KT 29/16 A2992 RMK A01 T02930162  RH  045%=      5-min Rain = 0
KSW1 130751Z 17012KT 29/16 A2992 RMK A01 T02930163  RH  045%=      5-min Rain = 0
KSW1 130752Z 17011KT 29/16 A2992 RMK A01 T02930163  RH  045%=      5-min Rain = 0
KSW1 130753Z 17011KT 29/16 A2992 RMK A01 T02930163  RH  045%=      5-min Rain = 0
KSW1 130754Z 17009KT 29/16 A2992 RMK A01 T02930163  RH  045%=      5-min Rain = 0
KSW1 130755Z 17011KT 29/16 A2992 RMK A01 T02920163  RH  046%=      5-min Rain = 0
KSW1 130756Z 17012KT 29/16 A2992 RMK A01 T02910163  RH  046%=      5-min Rain = 0
KSW1 130757Z 17013KT 29/16 A2992 RMK A01 T02910163  RH  046%=      5-min Rain = 0
KSW1 130758Z 17012KT 29/16 A2992 RMK A01 T02910163  RH  046%=      5-min Rain = 0
KSW1 130759Z 17012KT 29/16 A2992 RMK A01 T02910163  RH  046%=      5-min Rain = 0
KSW1 130800Z 17011KT 29/16 A2992 RMK A01 T02920163  RH  046%=      5-min Rain = 0
KSW1 130801Z 17012KT 29/16 A2992 RMK A01 T02920164  RH  046%=      5-min Rain = 0
KSW1 130802Z 18011KT 29/16 A2992 RMK A01 T02920164  RH  046%=      5-min Rain = 0
KSW1 130803Z 17012KT 29/16 A2992 RMK A01 T02910164  RH  046%=      5-min Rain = 0
KSW1 130804Z 18012KT 29/16 A2992 RMK A01 T02910164  RH  046%=      5-min Rain = 0
KSW1 130805Z 17010KT 29/16 A2992 RMK A01 T02910164  RH  046%=      5-min Rain = 0
KSW1 130806Z 18012KT 29/16 A2992 RMK A01 T02900164  RH  046%=      5-min Rain = 0
KSW1 130807Z 18011KT 29/16 A2992 RMK A01 T02900164  RH  047%=      5-min Rain = 0
KSW1 130808Z 18011KT 29/17 A2992 RMK A01 T02900165  RH  047%=      5-min Rain = 0
KSW1 130809Z 18012KT 29/17 A2992 RMK A01 T02900165  RH  047%=      5-min Rain = 0
KSW1 130810Z 18012KT 29/17 A2992 RMK A01 T02890165  RH  047%=      5-min Rain = 0
KSW1 130811Z 18012KT 29/17 A2992 RMK A01 T02900165  RH  047%=      5-min Rain = 0
KSW1 130812Z 18012KT 29/17 A2992 RMK A01 T02900165  RH  047%=      5-min Rain = 0
KSW1 130813Z 18011KT 29/17 A2992 RMK A01 T02900165  RH  047%=      5-min Rain = 0
KSW1 130814Z 17010KT 29/17 A2992 RMK A01 T02900165  RH  047%=      5-min Rain = 0
KSW1 130815Z 18011KT 29/17 A2992 RMK A01 T02900165  RH  047%=      5-min Rain = 0
KSW1 130816Z 18011KT 29/17 A2992 RMK A01 T02890165  RH  047%=      5-min Rain = 0
KSW1 130817Z 18011KT 29/17 A2992 RMK A01 T02890165  RH  047%=      5-min Rain = 0
KSW1 130818Z 18011KT 29/17 A2992 RMK A01 T02890165  RH  047%=      5-min Rain = 0
KSW1 130819Z 18011KT 29/17 A2992 RMK A01 T02890165  RH  047%=      5-min Rain = 0
KSW1 130820Z 18013KT 29/17 A2992 RMK A01 T02890166  RH  047%=      5-min Rain = 0
KSW1 130821Z 18012KT 29/17 A2992 RMK A01 T02890166  RH  047%=      5-min Rain = 0
KSW1 130822Z 18012KT 29/17 A2992 RMK A01 T02900166  RH  047%=      5-min Rain = 0
KSW1 130823Z 18011KT 29/17 A2992 RMK A01 T02900166  RH  047%=      5-min Rain = 0
KSW1 130824Z 18010KT 29/17 A2992 RMK A01 T02890166  RH  047%=      5-min Rain = 0
KSW1 130825Z 18010KT 29/17 A2992 RMK A01 T02890166  RH  047%=      5-min Rain = 0
KSW1 130826Z 18012KT 29/17 A2992 RMK A01 T02880166  RH  047%=      5-min Rain = 0
KSW1 130827Z 18010KT 29/17 A2992 RMK A01 T02880165  RH  048%=      5-min Rain = 0
KSW1 130828Z 18011KT 29/17 A2992 RMK A01 T02880166  RH  048%=      5-min Rain = 0
KSW1 130829Z 18011KT 29/17 A2992 RMK A01 T02880166  RH  048%=      5-min Rain = 0
KSW1 130830Z 18012G17KT 29/17 A2992 RMK A01 T02880166  RH  048%=      5-min Rain = 0
KSW1 130831Z 18011KT 29/17 A2992 RMK A01 T02880166  RH  048%=      5-min Rain = 0
KSW1 130832Z 17011KT 29/17 A2992 RMK A01 T02880166  RH  048%=      5-min Rain = 0
KSW1 130833Z 18010KT 29/17 A2992 RMK A01 T02880166  RH  048%=      5-min Rain = 0
KSW1 130834Z 18011KT 29/17 A2992 RMK A01 T02880166  RH  048%=      5-min Rain = 0
KSW1 130835Z 18011KT 29/17 A2992 RMK A01 T02880166  RH  048%=      5-min Rain = 0
KSW1 130836Z 18012KT 29/17 A2992 RMK A01 T02880166  RH  048%=      5-min Rain = 0
KSW1 130837Z 17010KT 29/17 A2992 RMK A01 T02880166  RH  048%=      5-min Rain = 0
KSW1 130838Z 18011KT 29/17 A2992 RMK A01 T02880166  RH  048%=      5-min Rain = 0
KSW1 130839Z 17010KT 29/17 A2992 RMK A01 T02870166  RH  048%=      5-min Rain = 0
KSW1 130840Z 17010KT 29/17 A2992 RMK A01 T02870166  RH  048%=      5-min Rain = 0
KSW1 130841Z 18011KT 29/17 A2992 RMK A01 T02870166  RH  048%=      5-min Rain = 0
KSW1 130842Z 18010KT 29/17 A2992 RMK A01 T02870166  RH  048%=      5-min Rain = 0
KSW1 130843Z 18012KT 29/17 A2992 RMK A01 T02870166  RH  048%=      5-min Rain = 0
KSW1 130844Z 18011KT 29/17 A2992 RMK A01 T02870166  RH  048%=      5-min Rain = 0
KSW1 130845Z 18011KT 29/17 A2992 RMK A01 T02860166  RH  048%=      5-min Rain = 0
KSW1 130846Z 18010KT 29/17 A2992 RMK A01 T02860166  RH  048%=      5-min Rain = 0
KSW1 130847Z 18011KT 29/17 A2992 RMK A01 T02860166  RH  048%=      5-min Rain = 0
KSW1 130848Z 18009KT 29/17 A2992 RMK A01 T02860166  RH  048%=      5-min Rain = 0
KSW1 130849Z 18009KT 29/17 A2992 RMK A01 T02850166  RH  049%=      5-min Rain = 0
KSW1 130850Z 18010KT 29/17 A2992 RMK A01 T02850166  RH  049%=      5-min Rain = 0
KSW1 130851Z 18012KT 28/17 A2992 RMK A01 T02840166  RH  049%=      5-min Rain = 0
KSW1 130852Z 18010KT 28/17 A2992 RMK A01 T02840166  RH  049%=      5-min Rain = 0
KSW1 130853Z 18009KT 29/17 A2992 RMK A01 T02850167  RH  049%=      5-min Rain = 0
KSW1 130854Z 18009KT 29/17 A2992 RMK A01 T02850167  RH  049%=      5-min Rain = 0
KSW1 130855Z 18010KT 28/17 A2992 RMK A01 T02840167  RH  049%=      5-min Rain = 0
KSW1 130856Z 18009KT 28/17 A2992 RMK A01 T02840167  RH  049%=      5-min Rain = 0
KSW1 130857Z 18009KT 28/17 A2992 RMK A01 T02840167  RH  049%=      5-min Rain = 0
KSW1 130858Z 18010KT 28/17 A2992 RMK A01 T02840167  RH  049%=      5-min Rain = 0
KSW1 130859Z 18009KT 28/17 A2992 RMK A01 T02830167  RH  049%=      5-min Rain = 0
KSW1 130900Z 18010KT 28/17 A2992 RMK A01 T02830166  RH  049%=      5-min Rain = 0
KSW1 130901Z 18010KT 28/17 A2992 RMK A01 T02830166  RH  049%=      5-min Rain = 0
KSW1 130902Z 18009KT 28/17 A2992 RMK A01 T02830167  RH  049%=      5-min Rain = 0
KSW1 130903Z 18010KT 28/17 A2992 RMK A01 T02830166  RH  049%=      5-min Rain = 0
KSW1 130904Z 18010KT 28/17 A2992 RMK A01 T02830167  RH  049%=      5-min Rain = 0
KSW1 130905Z 18010KT 28/17 A2992 RMK A01 T02830167  RH  049%=      5-min Rain = 0
KSW1 130906Z 18010KT 28/17 A2992 RMK A01 T02830167  RH  049%=      5-min Rain = 0
KSW1 130907Z 18009KT 28/17 A2992 RMK A01 T02820167  RH  049%=      5-min Rain = 0
KSW1 130908Z 18008KT 28/17 A2992 RMK A01 T02820166  RH  049%=      5-min Rain = 0
KSW1 130909Z 18009KT 28/17 A2992 RMK A01 T02820167  RH  050%=      5-min Rain = 0
KSW1 130910Z 18010KT 28/17 A2992 RMK A01 T02820167  RH  050%=      5-min Rain = 0
KSW1 130911Z 18009KT 28/17 A2992 RMK A01 T02820167  RH  050%=      5-min Rain = 0
KSW1 130912Z 18008KT 28/17 A2992 RMK A01 T02820167  RH  050%=      5-min Rain = 0
KSW1 130913Z 18009KT 28/17 A2992 RMK A01 T02810167  RH  050%=      5-min Rain = 0
KSW1 130914Z 17009KT 28/17 A2992 RMK A01 T02820167  RH  050%=      5-min Rain = 0
KSW1 130915Z 18008KT 28/17 A2992 RMK A01 T02820167  RH  050%=      5-min Rain = 0
KSW1 130916Z 18008KT 28/17 A2992 RMK A01 T02820167  RH  050%=      5-min Rain = 0
KSW1 130917Z 18008KT 28/17 A2992 RMK A01 T02810167  RH  050%=      5-min Rain = 0
KSW1 130918Z 17009KT 28/17 A2992 RMK A01 T02810167  RH  050%=      5-min Rain = 0
KSW1 130919Z 18008KT 28/17 A2992 RMK A01 T02810167  RH  050%=      5-min Rain = 0
KSW1 130920Z 18009KT 28/17 A2992 RMK A01 T02810167  RH  050%=      5-min Rain = 0
KSW1 130921Z 18009KT 28/17 A2992 RMK A01 T02810167  RH  050%=      5-min Rain = 0
KSW1 130922Z 18009KT 28/17 A2992 RMK A01 T02810167  RH  050%=      5-min Rain = 0
KSW1 130923Z 18008KT 28/17 A2992 RMK A01 T02810167  RH  050%=      5-min Rain = 0
KSW1 130924Z 18009KT 28/17 A2992 RMK A01 T02810167  RH  050%=      5-min Rain = 0
KSW1 130925Z 18008KT 28/17 A2991 RMK A01 T02810167  RH  050%=      5-min Rain = 0
KSW1 130926Z 18008KT 28/17 A2992 RMK A01 T02810167  RH  050%=      5-min Rain = 0
KSW1 130927Z 18008KT 28/17 A2992 RMK A01 T02800167  RH  050%=      5-min Rain = 0
KSW1 130928Z 17010KT 28/17 A2991 RMK A01 T02800167  RH  050%=      5-min Rain = 0
KSW1 130929Z 18009KT 28/17 A2991 RMK A01 T02810167  RH  050%=      5-min Rain = 0
KSW1 130930Z 18009KT 28/17 A2992 RMK A01 T02810167  RH  050%=      5-min Rain = 0
KSW1 130931Z 18011KT 28/17 A2992 RMK A01 T02800167  RH  050%=      5-min Rain = 0
KSW1 130932Z 17010KT 28/17 A2992 RMK A01 T02810167  RH  050%=      5-min Rain = 0
KSW1 130933Z 17011KT 28/17 A2992 RMK A01 T02810167  RH  050%=      5-min Rain = 0
KSW1 130934Z 17009KT 28/17 A2992 RMK A01 T02810168  RH  050%=      5-min Rain = 0
KSW1 130935Z 18009KT 28/17 A2992 RMK A01 T02810167  RH  050%=      5-min Rain = 0
KSW1 130936Z 18011KT 28/17 A2992 RMK A01 T02810168  RH  050%=      5-min Rain = 0
KSW1 130937Z 18010KT 28/17 A2992 RMK A01 T02810168  RH  050%=      5-min Rain = 0
KSW1 130938Z 17009KT 28/17 A2992 RMK A01 T02810167  RH  050%=      5-min Rain = 0
KSW1 130939Z 18011KT 28/17 A2992 RMK A01 T02820168  RH  050%=      5-min Rain = 0
KSW1 130940Z 17009KT 28/17 A2992 RMK A01 T02810167  RH  050%=      5-min Rain = 0
KSW1 130941Z 18008KT 28/17 A2992 RMK A01 T02820167  RH  050%=      5-min Rain = 0
KSW1 130942Z 18010KT 28/17 A2992 RMK A01 T02810167  RH  050%=      5-min Rain = 0
KSW1 130943Z 18008KT 28/17 A2992 RMK A01 T02820167  RH  050%=      5-min Rain = 0
KSW1 130944Z 17009KT 28/17 A2992 RMK A01 T02820168  RH  050%=      5-min Rain = 0
KSW1 130945Z 17009KT 28/17 A2992 RMK A01 T02810168  RH  050%=      5-min Rain = 0
KSW1 130946Z 17008KT 28/17 A2992 RMK A01 T02820168  RH  050%=      5-min Rain = 0
KSW1 130947Z 17009KT 28/17 A2992 RMK A01 T02820168  RH  050%=      5-min Rain = 0
KSW1 130948Z 17009KT 28/17 A2992 RMK A01 T02810168  RH  050%=      5-min Rain = 0
KSW1 130949Z 17009KT 28/17 A2992 RMK A01 T02810168  RH  050%=      5-min Rain = 0
KSW1 130950Z 18010KT 28/17 A2992 RMK A01 T02810167  RH  050%=      5-min Rain = 0
KSW1 130951Z 17010KT 28/17 A2992 RMK A01 T02820168  RH  050%=      5-min Rain = 0
KSW1 130952Z 17009KT 28/17 A2992 RMK A01 T02820168  RH  050%=      5-min Rain = 0
KSW1 130953Z 17009KT 28/17 A2992 RMK A01 T02820168  RH  050%=      5-min Rain = 0
KSW1 130954Z 17010KT 28/17 A2992 RMK A01 T02820168  RH  050%=      5-min Rain = 0
KSW1 130955Z 17010KT 28/17 A2992 RMK A01 T02820168  RH  050%=      5-min Rain = 0
KSW1 130956Z 17009KT 28/17 A2992 RMK A01 T02810168  RH  050%=      5-min Rain = 0
KSW1 130957Z 17010KT 28/17 A2992 RMK A01 T02810168  RH  050%=      5-min Rain = 0
KSW1 130958Z 17008KT 28/17 A2992 RMK A01 T02810168  RH  050%=      5-min Rain = 0
KSW1 130959Z 18009KT 28/17 A2992 RMK A01 T02810168  RH  050%=      5-min Rain = 0
KSW1 131000Z 17009KT 28/17 A2992 RMK A01 T02800168  RH  050%=      5-min Rain = 0
KSW1 131001Z 17010KT 28/17 A2992 RMK A01 T02800168  RH  051%=      5-min Rain = 0
KSW1 131002Z 17009KT 28/17 A2992 RMK A01 T02800168  RH  050%=      5-min Rain = 0
KSW1 131003Z 18009KT 28/17 A2992 RMK A01 T02800168  RH  050%=      5-min Rain = 0
KSW1 131004Z 18010KT 28/17 A2992 RMK A01 T02800168  RH  050%=      5-min Rain = 0
KSW1 131005Z 18009KT 28/17 A2992 RMK A01 T02800168  RH  050%=      5-min Rain = 0
KSW1 131006Z 18009KT 28/17 A2992 RMK A01 T02800168  RH  051%=      5-min Rain = 0
KSW1 131007Z 18008KT 28/17 A2993 RMK A01 T02800169  RH  051%=      5-min Rain = 0
KSW1 131008Z 18009KT 28/17 A2993 RMK A01 T02800168  RH  051%=      5-min Rain = 0
KSW1 131009Z 18008KT 28/17 A2993 RMK A01 T02790168  RH  051%=      5-min Rain = 0
KSW1 131010Z 18007KT 28/17 A2993 RMK A01 T02790168  RH  051%=      5-min Rain = 0
KSW1 131011Z 19008KT 28/17 A2993 RMK A01 T02790169  RH  051%=      5-min Rain = 0
KSW1 131012Z 19007KT 28/17 A2993 RMK A01 T02780168  RH  051%=      5-min Rain = 0
KSW1 131013Z 19008KT 28/17 A2993 RMK A01 T02780169  RH  051%=      5-min Rain = 0
KSW1 131014Z 19007KT 28/17 A2993 RMK A01 T02780169  RH  051%=      5-min Rain = 0
KSW1 131015Z 18007KT 28/17 A2993 RMK A01 T02780168  RH  051%=      5-min Rain = 0
KSW1 131016Z 19006KT 28/17 A2993 RMK A01 T02780169  RH  052%=      5-min Rain = 0
KSW1 131017Z 19007KT 28/17 A2993 RMK A01 T02770169  RH  052%=      5-min Rain = 0
KSW1 131018Z 19007KT 28/17 A2993 RMK A01 T02770169  RH  052%=      5-min Rain = 0
KSW1 131019Z 18007KT 28/17 A2993 RMK A01 T02770169  RH  052%=      5-min Rain = 0
KSW1 131020Z 18006KT 28/17 A2993 RMK A01 T02770169  RH  052%=      5-min Rain = 0
KSW1 131021Z 19006KT 28/17 A2993 RMK A01 T02770169  RH  052%=      5-min Rain = 0
KSW1 131022Z 18007KT 28/17 A2993 RMK A01 T02770169  RH  052%=      5-min Rain = 0
KSW1 131023Z 18007KT 28/17 A2993 RMK A01 T02760169  RH  052%=      5-min Rain = 0
KSW1 131024Z 18007KT 28/17 A2993 RMK A01 T02760169  RH  052%=      5-min Rain = 0
KSW1 131025Z 18007KT 28/17 A2993 RMK A01 T02760169  RH  052%=      5-min Rain = 0
KSW1 131026Z 18008KT 28/17 A2993 RMK A01 T02760169  RH  052%=      5-min Rain = 0
KSW1 131027Z 18006KT 28/17 A2993 RMK A01 T02760169  RH  052%=      5-min Rain = 0
KSW1 131028Z 18006KT 28/17 A2993 RMK A01 T02760169  RH  052%=      5-min Rain = 0
KSW1 131029Z 18006KT 28/17 A2993 RMK A01 T02760170  RH  052%=      5-min Rain = 0
KSW1 131030Z 18006KT 28/17 A2993 RMK A01 T02750169  RH  053%=      5-min Rain = 0
KSW1 131031Z 18007KT 28/17 A2993 RMK A01 T02750169  RH  053%=      5-min Rain = 0
KSW1 131032Z 18007KT 27/17 A2993 RMK A01 T02740170  RH  053%=      5-min Rain = 0
KSW1 131033Z 18006KT 27/17 A2993 RMK A01 T02740169  RH  053%=      5-min Rain = 0
KSW1 131034Z 18007KT 27/17 A2993 RMK A01 T02740169  RH  053%=      5-min Rain = 0
KSW1 131035Z 18007KT 27/17 A2993 RMK A01 T02730170  RH  053%=      5-min Rain = 0
KSW1 131036Z 18007KT 27/17 A2993 RMK A01 T02730170  RH  053%=      5-min Rain = 0
KSW1 131037Z 18007KT 27/17 A2993 RMK A01 T02730170  RH  053%=      5-min Rain = 0
KSW1 131038Z 17008KT 27/17 A2993 RMK A01 T02730170  RH  053%=      5-min Rain = 0
KSW1 131039Z 17008KT 27/17 A2993 RMK A01 T02730170  RH  053%=      5-min Rain = 0
KSW1 131040Z 17008KT 27/17 A2993 RMK A01 T02730170  RH  053%=      5-min Rain = 0
KSW1 131041Z 17008KT 27/17 A2993 RMK A01 T02730170  RH  053%=      5-min Rain = 0
KSW1 131042Z 17008KT 27/17 A2993 RMK A01 T02740171  RH  053%=      5-min Rain = 0
KSW1 131043Z 18008KT 27/17 A2993 RMK A01 T02730170  RH  053%=      5-min Rain = 0
KSW1 131044Z 17008KT 27/17 A2993 RMK A01 T02740171  RH  053%=      5-min Rain = 0
KSW1 131045Z 17009KT 27/17 A2993 RMK A01 T02730171  RH  054%=      5-min Rain = 0
KSW1 131046Z 17008KT 27/17 A2993 RMK A01 T02730171  RH  053%=      5-min Rain = 0
KSW1 131047Z 17008KT 27/17 A2993 RMK A01 T02730171  RH  054%=      5-min Rain = 0
KSW1 131048Z 17009KT 27/17 A2993 RMK A01 T02730171  RH  054%=      5-min Rain = 0
KSW1 131049Z 18007KT 27/17 A2993 RMK A01 T02730171  RH  054%=      5-min Rain = 0
KSW1 131050Z 18008KT 27/17 A2993 RMK A01 T02730171  RH  054%=      5-min Rain = 0
KSW1 131051Z 17007KT 27/17 A2993 RMK A01 T02730172  RH  054%=      5-min Rain = 0
KSW1 131052Z 18007KT 27/17 A2993 RMK A01 T02720171  RH  054%=      5-min Rain = 0
KSW1 131053Z 18008KT 27/17 A2993 RMK A01 T02720172  RH  054%=      5-min Rain = 0
KSW1 131054Z 18008KT 27/17 A2993 RMK A01 T02720172  RH  054%=      5-min Rain = 0
KSW1 131055Z 18008KT 27/17 A2994 RMK A01 T02720172  RH  054%=      5-min Rain = 0
KSW1 131056Z 18008KT 27/17 A2994 RMK A01 T02720172  RH  054%=      5-min Rain = 0
KSW1 131057Z 18007KT 27/17 A2994 RMK A01 T02720172  RH  055%=      5-min Rain = 0
KSW1 131058Z 18007KT 27/17 A2994 RMK A01 T02720172  RH  054%=      5-min Rain = 0
KSW1 131059Z 19007KT 27/17 A2994 RMK A01 T02720172  RH  054%=      5-min Rain = 0
KSW1 131100Z 18007KT 27/17 A2994 RMK A01 T02710172  RH  055%=      5-min Rain = 0
KSW1 131101Z 19007KT 27/17 A2994 RMK A01 T02710172  RH  055%=      5-min Rain = 0
KSW1 131102Z 18006KT 27/17 A2994 RMK A01 T02700172  RH  055%=      5-min Rain = 0
KSW1 131103Z 19006KT 27/17 A2994 RMK A01 T02700172  RH  055%=      5-min Rain = 0
KSW1 131104Z 18007KT 27/17 A2994 RMK A01 T02700173  RH  055%=      5-min Rain = 0
KSW1 131105Z 19007KT 27/17 A2994 RMK A01 T02690172  RH  055%=      5-min Rain = 0
KSW1 131106Z 19006KT 27/17 A2994 RMK A01 T02700173  RH  055%=      5-min Rain = 0
KSW1 131107Z 19006KT 27/17 A2994 RMK A01 T02700172  RH  055%=      5-min Rain = 0
KSW1 131108Z 19006KT 27/17 A2994 RMK A01 T02700173  RH  055%=      5-min Rain = 0
KSW1 131109Z 19006KT 27/17 A2994 RMK A01 T02690173  RH  055%=      5-min Rain = 0
KSW1 131110Z 20006KT 27/17 A2994 RMK A01 T02690173  RH  056%=      5-min Rain = 0
KSW1 131111Z 20005KT 27/17 A2994 RMK A01 T02690173  RH  056%=      5-min Rain = 0
KSW1 131112Z 20006KT 27/17 A2994 RMK A01 T02680173  RH  056%=      5-min Rain = 0
KSW1 131113Z 20006KT 27/17 A2994 RMK A01 T02670173  RH  056%=      5-min Rain = 0
KSW1 131114Z 20005KT 27/17 A2994 RMK A01 T02680173  RH  056%=      5-min Rain = 0
KSW1 131115Z 20005KT 27/17 A2994 RMK A01 T02670173  RH  056%=      5-min Rain = 0
KSW1 131116Z 20005KT 27/17 A2994 RMK A01 T02670174  RH  056%=      5-min Rain = 0
KSW1 131117Z 20006KT 27/17 A2994 RMK A01 T02670173  RH  056%=      5-min Rain = 0
KSW1 131118Z 20007KT 27/17 A2994 RMK A01 T02670174  RH  057%=      5-min Rain = 0
KSW1 131119Z 20006KT 27/17 A2994 RMK A01 T02670174  RH  057%=      5-min Rain = 0
KSW1 131120Z 20006KT 27/17 A2994 RMK A01 T02660173  RH  057%=      5-min Rain = 0
KSW1 131121Z 20007KT 27/17 A2994 RMK A01 T02660173  RH  057%=      5-min Rain = 0
KSW1 131122Z 20006KT 27/17 A2994 RMK A01 T02650173  RH  057%=      5-min Rain = 0
KSW1 131123Z 19007KT 27/17 A2994 RMK A01 T02650174  RH  057%=      5-min Rain = 0
KSW1 131124Z 20007KT 27/17 A2994 RMK A01 T02650174  RH  057%=      5-min Rain = 0
KSW1 131125Z 20006KT 27/17 A2995 RMK A01 T02650174  RH  057%=      5-min Rain = 0
KSW1 131126Z 20006KT 27/17 A2995 RMK A01 T02650174  RH  057%=      5-min Rain = 0
KSW1 131127Z 21006KT 26/17 A2995 RMK A01 T02640174  RH  058%=      5-min Rain = 0
KSW1 131128Z 21006KT 26/17 A2995 RMK A01 T02630174  RH  058%=      5-min Rain = 0
KSW1 131129Z 21006KT 26/17 A2995 RMK A01 T02630174  RH  058%=      5-min Rain = 0
KSW1 131130Z 21006KT 26/17 A2995 RMK A01 T02620174  RH  058%=      5-min Rain = 0
KSW1 131131Z 21005KT 26/17 A2995 RMK A01 T02620174  RH  059%=      5-min Rain = 0
KSW1 131132Z 20005KT 26/17 A2995 RMK A01 T02620174  RH  059%=      5-min Rain = 0
KSW1 131133Z 20005KT 26/17 A2995 RMK A01 T02610174  RH  059%=      5-min Rain = 0
KSW1 131134Z 20006KT 26/17 A2995 RMK A01 T02600174  RH  059%=      5-min Rain = 0
KSW1 131135Z 19006KT 26/17 A2995 RMK A01 T02600174  RH  059%=      5-min Rain = 0
KSW1 131136Z 19006KT 26/17 A2995 RMK A01 T02600174  RH  059%=      5-min Rain = 0
KSW1 131137Z 19006KT 26/17 A2995 RMK A01 T02600174  RH  059%=      5-min Rain = 0
KSW1 131138Z 20006KT 26/17 A2995 RMK A01 T02610174  RH  059%=      5-min Rain = 0
KSW1 131139Z 19006KT 26/17 A2995 RMK A01 T02610174  RH  059%=      5-min Rain = 0
KSW1 131140Z 19006KT 26/17 A2995 RMK A01 T02610174  RH  059%=      5-min Rain = 0
KSW1 131141Z 19007KT 26/18 A2995 RMK A01 T02610175  RH  059%=      5-min Rain = 0
KSW1 131142Z 19006KT 26/18 A2995 RMK A01 T02610175  RH  059%=      5-min Rain = 0
KSW1 131143Z 20006KT 26/18 A2995 RMK A01 T02620175  RH  059%=      5-min Rain = 0
KSW1 131144Z 20006KT 26/18 A2995 RMK A01 T02620176  RH  059%=      5-min Rain = 0
KSW1 131145Z 19006KT 26/18 A2995 RMK A01 T02610175  RH  059%=      5-min Rain = 0
KSW1 131146Z 20006KT 26/18 A2995 RMK A01 T02610175  RH  059%=      5-min Rain = 0
KSW1 131147Z 20006KT 26/18 A2995 RMK A01 T02600176  RH  060%=      5-min Rain = 0
KSW1 131148Z 19006KT 26/18 A2995 RMK A01 T02600176  RH  060%=      5-min Rain = 0
KSW1 131149Z 19006KT 26/18 A2995 RMK A01 T02600176  RH  060%=      5-min Rain = 0
KSW1 131150Z 19006KT 26/18 A2995 RMK A01 T02590176  RH  060%=      5-min Rain = 0
KSW1 131151Z 19006KT 26/18 A2995 RMK A01 T02590176  RH  060%=      5-min Rain = 0
KSW1 131152Z 19006KT 26/18 A2995 RMK A01 T02580176  RH  060%=      5-min Rain = 0
KSW1 131153Z 19006KT 26/18 A2996 RMK A01 T02580176  RH  060%=      5-min Rain = 0
KSW1 131154Z 19006KT 26/18 A2996 RMK A01 T02570176  RH  061%=      5-min Rain = 0
KSW1 131155Z 19006KT 26/18 A2996 RMK A01 T02570176  RH  061%=      5-min Rain = 0
KSW1 131156Z 19006KT 26/18 A2996 RMK A01 T02570176  RH  061%=      5-min Rain = 0
KSW1 131157Z 19006KT 26/18 A2996 RMK A01 T02570176  RH  061%=      5-min Rain = 0
KSW1 131158Z 19006KT 26/18 A2996 RMK A01 T02560176  RH  061%=      5-min Rain = 0
KSW1 131159Z 19006KT 26/18 A2996 RMK A01 T02560176  RH  061%=      5-min Rain = 0
KSW1 131200Z 19006KT 26/18 A2996 RMK A01 T02550176  RH  061%=      5-min Rain = 0
KSW1 131201Z 19006KT 26/18 A2996 RMK A01 T02550176  RH  061%=      5-min Rain = 0
KSW1 131202Z 19006KT 26/18 A2996 RMK A01 T02550176  RH  062%=      5-min Rain = 0
KSW1 131203Z 19006KT 26/18 A2996 RMK A01 T02550176  RH  062%=      5-min Rain = 0
KSW1 131204Z 19006KT 26/18 A2996 RMK A01 T02550176  RH  062%=      5-min Rain = 0
KSW1 131205Z 19006KT 25/18 A2996 RMK A01 T02540176  RH  062%=      5-min Rain = 0
KSW1 131206Z 18006KT 25/18 A2996 RMK A01 T02540176  RH  062%=      5-min Rain = 0
KSW1 131207Z 18006KT 25/18 A2996 RMK A01 T02530176  RH  062%=      5-min Rain = 0
KSW1 131208Z 18006KT 25/18 A2996 RMK A01 T02520176  RH  063%=      5-min Rain = 0
KSW1 131209Z 18006KT 25/18 A2996 RMK A01 T02520176  RH  063%=      5-min Rain = 0
KSW1 131210Z 18006KT 25/18 A2996 RMK A01 T02510176  RH  063%=      5-min Rain = 0
KSW1 131211Z 18006KT 25/18 A2996 RMK A01 T02510176  RH  063%=      5-min Rain = 0
KSW1 131212Z 18006KT 25/18 A2996 RMK A01 T02520177  RH  063%=      5-min Rain = 0
KSW1 131213Z 18006KT 25/18 A2996 RMK A01 T02510176  RH  063%=      5-min Rain = 0
KSW1 131214Z 18006KT 25/18 A2996 RMK A01 T02510177  RH  063%=      5-min Rain = 0
KSW1 131215Z 17006KT 25/18 A2996 RMK A01 T02510177  RH  064%=      5-min Rain = 0
KSW1 131216Z 17006KT 25/18 A2996 RMK A01 T02500177  RH  064%=      5-min Rain = 0
KSW1 131217Z 17006KT 25/18 A2996 RMK A01 T02500178  RH  064%=      5-min Rain = 0
KSW1 131218Z 17006KT 25/18 A2996 RMK A01 T02500178  RH  064%=      5-min Rain = 0
KSW1 131219Z 17006KT 25/18 A2996 RMK A01 T02500178  RH  064%=      5-min Rain = 0
KSW1 131220Z 17005KT 25/18 A2996 RMK A01 T02500178  RH  064%=      5-min Rain = 0
KSW1 131221Z 17005KT 25/18 A2996 RMK A01 T02500179  RH  064%=      5-min Rain = 0
KSW1 131222Z 17004KT 25/18 A2996 RMK A01 T02500179  RH  065%=      5-min Rain = 0
KSW1 131223Z 17004KT 25/18 A2996 RMK A01 T02500179  RH  065%=      5-min Rain = 0
KSW1 131224Z 16004KT 25/18 A2997 RMK A01 T02510180  RH  065%=      5-min Rain = 0
KSW1 131225Z 16003KT 25/18 A2997 RMK A01 T02510180  RH  065%=      5-min Rain = 0
KSW1 131226Z 16003KT 25/18 A2997 RMK A01 T02510180  RH  065%=      5-min Rain = 0
KSW1 131227Z 15002KT 25/18 A2997 RMK A01 T02510180  RH  065%=      5-min Rain = 0
KSW1 131228Z 13002KT 25/18 A2997 RMK A01 T02520181  RH  065%=      5-min Rain = 0
KSW1 131229Z 11002KT 25/18 A2997 RMK A01 T02520180  RH  064%=      5-min Rain = 0
KSW1 131230Z 07002KT 25/18 A2997 RMK A01 T02520181  RH  065%=      5-min Rain = 0
KSW1 131231Z 05003KT 25/18 A2998 RMK A01 T02520180  RH  065%=      5-min Rain = 0
KSW1 131232Z 04005KT 25/18 A2998 RMK A01 T02510180  RH  065%=      5-min Rain = 0
KSW1 131233Z 03006KT 25/18 A2998 RMK A01 T02510180  RH  065%=      5-min Rain = 0
KSW1 131234Z 03008KT 25/18 A2998 RMK A01 T02500181  RH  065%=      5-min Rain = 0
KSW1 131235Z 03008KT 25/18 A2998 RMK A01 T02500181  RH  065%=      5-min Rain = 0
KSW1 131236Z 03008KT 25/18 A2998 RMK A01 T02500181  RH  066%=      5-min Rain = 0
KSW1 131237Z 04008KT 25/18 A2998 RMK A01 T02500181  RH  065%=      5-min Rain = 0
KSW1 131238Z 04008KT 25/18 A2999 RMK A01 T02510180  RH  065%=      5-min Rain = 0
KSW1 131239Z 04007KT 25/18 A2999 RMK A01 T02520180  RH  064%=      5-min Rain = 0
KSW1 131240Z 03007KT 25/18 A2999 RMK A01 T02530180  RH  064%=      5-min Rain = 0
KSW1 131241Z 04007KT 25/18 A2999 RMK A01 T02540180  RH  064%=      5-min Rain = 0
KSW1 131242Z 04005KT 26/18 A2999 RMK A01 T02550181  RH  063%=      5-min Rain = 0
KSW1 131243Z 03005KT 26/18 A2999 RMK A01 T02560181  RH  063%=      5-min Rain = 0
KSW1 131244Z 03003KT 26/18 A2999 RMK A01 T02570181  RH  063%=      5-min Rain = 0
KSW1 131245Z 03003KT 26/18 A2999 RMK A01 T02580181  RH  063%=      5-min Rain = 0
KSW1 131246Z 04003KT 26/18 A2999 RMK A01 T02590181  RH  062%=      5-min Rain = 0
KSW1 131247Z 04002KT 26/18 A2999 RMK A01 T02590181  RH  062%=      5-min Rain = 0
KSW1 131248Z 04003KT 26/18 A2999 RMK A01 T02600181  RH  062%=      5-min Rain = 0
KSW1 131249Z 04003KT 26/18 A2999 RMK A01 T02610181  RH  062%=      5-min Rain = 0
KSW1 131250Z 04004KT 26/18 A2999 RMK A01 T02610181  RH  061%=      5-min Rain = 0
KSW1 131251Z 05004KT 26/18 A2999 RMK A01 T02620182  RH  061%=      5-min Rain = 0
KSW1 131252Z 06003KT 26/18 A2999 RMK A01 T02620182  RH  061%=      5-min Rain = 0
KSW1 131253Z 06004KT 26/18 A2999 RMK A01 T02630181  RH  061%=      5-min Rain = 0
KSW1 131254Z 06004KT 26/18 A2999 RMK A01 T02620182  RH  061%=      5-min Rain = 0
KSW1 131255Z 06004KT 26/18 A2999 RMK A01 T02620181  RH  061%=      5-min Rain = 0
KSW1 131256Z 06005KT 26/18 A2999 RMK A01 T02620181  RH  061%=      5-min Rain = 0
KSW1 131257Z 06004KT 26/18 A2999 RMK A01 T02620182  RH  061%=      5-min Rain = 0
KSW1 131258Z 06003KT 26/18 A2999 RMK A01 T02620182  RH  061%=      5-min Rain = 0
KSW1 131259Z 07004KT 26/18 A2999 RMK A01 T02630183  RH  061%=      5-min Rain = 0
KSW1 131300Z 07005KT 26/18 A2999 RMK A01 T02640183  RH  061%=      5-min Rain = 0
KSW1 131301Z 08005KT 26/18 A2999 RMK A01 T02640183  RH  061%=      5-min Rain = 0
KSW1 131302Z 07005KT 27/18 A2999 RMK A01 T02650182  RH  060%=      5-min Rain = 0
KSW1 131303Z 08006KT 27/18 A2999 RMK A01 T02650181  RH  060%=      5-min Rain = 0
KSW1 131304Z 08005KT 27/18 A2999 RMK A01 T02650181  RH  060%=      5-min Rain = 0
KSW1 131305Z 08006KT 27/18 A2999 RMK A01 T02650181  RH  060%=      5-min Rain = 0
KSW1 131306Z 09005KT 27/18 A2999 RMK A01 T02650181  RH  060%=      5-min Rain = 0
KSW1 131307Z 09005KT 27/18 A2999 RMK A01 T02650181  RH  060%=      5-min Rain = 0
KSW1 131308Z 09006KT 27/18 A2999 RMK A01 T02650180  RH  060%=      5-min Rain = 0
KSW1 131309Z 09005KT 27/18 A2999 RMK A01 T02650179  RH  059%=      5-min Rain = 0
KSW1 131310Z 08005KT 27/18 A2999 RMK A01 T02660179  RH  059%=      5-min Rain = 0
KSW1 131311Z 08005KT 27/18 A2999 RMK A01 T02660179  RH  059%=      5-min Rain = 0
KSW1 131312Z 08006KT 27/18 A2999 RMK A01 T02660178  RH  059%=      5-min Rain = 0
KSW1 131313Z 08006KT 27/18 A2999 RMK A01 T02660178  RH  058%=      5-min Rain = 0
KSW1 131314Z 08006KT 27/18 A2999 RMK A01 T02670178  RH  058%=      5-min Rain = 0
KSW1 131315Z 07006KT 27/18 A2999 RMK A01 T02680179  RH  058%=      5-min Rain = 0
KSW1 131316Z 08006KT 27/18 A2999 RMK A01 T02670178  RH  058%=      5-min Rain = 0
KSW1 131317Z 08006KT 27/18 A2999 RMK A01 T02680179  RH  058%=      5-min Rain = 0
KSW1 131318Z 08006KT 27/18 A2999 RMK A01 T02690179  RH  058%=      5-min Rain = 0
KSW1 131319Z 08005KT 27/18 A2999 RMK A01 T02690179  RH  058%=      5-min Rain = 0
KSW1 131320Z 09006KT 27/18 A2999 RMK A01 T02700179  RH  058%=      5-min Rain = 0
KSW1 131321Z 09005KT 27/18 A2999 RMK A01 T02700180  RH  058%=      5-min Rain = 0
KSW1 131322Z 09005KT 27/18 A2999 RMK A01 T02710180  RH  058%=      5-min Rain = 0
KSW1 131323Z 10005KT 27/18 A2999 RMK A01 T02730181  RH  057%=      5-min Rain = 0
KSW1 131324Z 10004KT 27/18 A2999 RMK A01 T02740182  RH  057%=      5-min Rain = 0
KSW1 131325Z 10004KT 28/18 A2999 RMK A01 T02750182  RH  057%=      5-min Rain = 0
KSW1 131326Z 11004KT 28/18 A2999 RMK A01 T02760182  RH  056%=      5-min Rain = 0
KSW1 131327Z 10004KT 28/18 A2999 RMK A01 T02760182  RH  056%=      5-min Rain = 0
KSW1 131328Z 10004KT 28/18 A30 RMK A01 T02770182  RH  056%=      5-min Rain = 0
KSW1 131329Z 11005KT 28/18 A30 RMK A01 T02770182  RH  056%=      5-min Rain = 0
KSW1 131330Z 11005KT 28/18 A30 RMK A01 T02770182  RH  056%=      5-min Rain = 0
KSW1 131331Z 10005KT 28/18 A30 RMK A01 T02760182  RH  056%=      5-min Rain = 0
KSW1 131332Z 09005KT 28/18 A30 RMK A01 T02760182  RH  057%=      5-min Rain = 0
KSW1 131333Z 09005KT 28/18 A30 RMK A01 T02760182  RH  056%=      5-min Rain = 0
KSW1 131334Z 10006KT 28/18 A30 RMK A01 T02760182  RH  056%=      5-min Rain = 0
KSW1 131335Z 10005KT 28/18 A30 RMK A01 T02760182  RH  056%=      5-min Rain = 0
KSW1 131336Z 10006KT 28/18 A30 RMK A01 T02760182  RH  056%=      5-min Rain = 0
KSW1 131337Z 10005KT 28/18 A30 RMK A01 T02770183  RH  056%=      5-min Rain = 0
KSW1 131338Z 09005KT 28/18 A30 RMK A01 T02770183  RH  056%=      5-min Rain = 0
KSW1 131339Z 10005KT 28/18 A30 RMK A01 T02780183  RH  056%=      5-min Rain = 0
KSW1 131340Z 09006KT 28/18 A30 RMK A01 T02790183  RH  056%=      5-min Rain = 0
KSW1 131341Z 11006KT 28/18 A30 RMK A01 T02800184  RH  056%=      5-min Rain = 0
KSW1 131342Z 11005KT 28/18 A30 RMK A01 T02800184  RH  056%=      5-min Rain = 0
KSW1 131343Z 11006KT 28/19 A30 RMK A01 T02800185  RH  056%=      5-min Rain = 0
KSW1 131344Z 10005KT 28/19 A30 RMK A01 T02800185  RH  056%=      5-min Rain = 0
KSW1 131345Z 11006KT 28/19 A30 RMK A01 T02800185  RH  056%=      5-min Rain = 0
KSW1 131346Z 10005KT 28/19 A30 RMK A01 T02810185  RH  056%=      5-min Rain = 0
KSW1 131347Z 10005KT 28/19 A30 RMK A01 T02820187  RH  056%=      5-min Rain = 0
KSW1 131348Z 10005KT 28/19 A30 RMK A01 T02820186  RH  056%=      5-min Rain = 0
KSW1 131349Z 10005KT 28/19 A30 RMK A01 T02840186  RH  055%=      5-min Rain = 0
KSW1 131350Z 10005KT 28/19 A30 RMK A01 T02840185  RH  055%=      5-min Rain = 0
KSW1 131351Z 12004KT 28/19 A30 RMK A01 T02840186  RH  055%=      5-min Rain = 0
KSW1 131352Z 11005KT 28/19 A30 RMK A01 T02840187  RH  056%=      5-min Rain = 0
KSW1 131353Z 11005KT 28/19 A30 RMK A01 T02840188  RH  056%=      5-min Rain = 0
KSW1 131354Z 12005KT 28/19 A30 RMK A01 T02840187  RH  056%=      5-min Rain = 0
KSW1 131355Z 12005KT 28/19 A30 RMK A01 T02840187  RH  056%=      5-min Rain = 0
KSW1 131356Z 12005KT 29/19 A30 RMK A01 T02860188  RH  055%=      5-min Rain = 0
KSW1 131357Z 11005KT 29/19 A30 RMK A01 T02860188  RH  055%=      5-min Rain = 0
KSW1 131358Z 13006KT 29/19 A30 RMK A01 T02850189  RH  056%=      5-min Rain = 0
KSW1 131359Z 12006KT 29/19 A30 RMK A01 T02850190  RH  056%=      5-min Rain = 0
KSW1 131400Z 11006KT 29/19 A30 RMK A01 T02850189  RH  056%=      5-min Rain = 0
KSW1 131401Z 12007KT 29/19 A30 RMK A01 T02850190  RH  056%=      5-min Rain = 0
KSW1 131402Z 11004KT 29/19 A30 RMK A01 T02850191  RH  057%=      5-min Rain = 0
KSW1 131403Z 12005KT 29/19 A30 RMK A01 T02870191  RH  056%=      5-min Rain = 0
KSW1 131404Z 11007KT 29/19 A30 RMK A01 T02880191  RH  056%=      5-min Rain = 0
KSW1 131405Z 11006KT 29/19 A30 RMK A01 T02890191  RH  055%=      5-min Rain = 0
KSW1 131406Z 11005KT 29/19 A30 RMK A01 T02890191  RH  055%=      5-min Rain = 0
KSW1 131407Z 13005KT 29/19 A30 RMK A01 T02890191  RH  056%=      5-min Rain = 0
KSW1 131408Z 13006KT 29/19 A30 RMK A01 T02900192  RH  055%=      5-min Rain = 0
KSW1 131409Z 13005KT 29/19 A30 RMK A01 T02900192  RH  055%=      5-min Rain = 0
KSW1 131410Z 13005KT 29/19 A30 RMK A01 T02900192  RH  056%=      5-min Rain = 0
KSW1 131411Z 13005KT 29/19 A30 RMK A01 T02900192  RH  056%=      5-min Rain = 0
KSW1 131412Z 13007KT 29/19 A30 RMK A01 T02900192  RH  056%=      5-min Rain = 0
KSW1 131413Z 14007KT 29/19 A30 RMK A01 T02900193  RH  056%=      5-min Rain = 0
KSW1 131414Z 13005KT 29/19 A30 RMK A01 T02900193  RH  056%=      5-min Rain = 0
KSW1 131415Z 12004KT 29/19 A30 RMK A01 T02910193  RH  056%=      5-min Rain = 0
KSW1 131416Z 14004KT 29/19 A30 RMK A01 T02910194  RH  056%=      5-min Rain = 0
KSW1 131417Z 16005KT 29/19 A30 RMK A01 T02930194  RH  055%=      5-min Rain = 0
KSW1 131418Z 13006KT 29/19 A30 RMK A01 T02930194  RH  055%=      5-min Rain = 0
KSW1 131419Z 13005KT 29/19 A30 RMK A01 T02930194  RH  055%=      5-min Rain = 0
KSW1 131420Z 15004KT 30/20 A30 RMK A01 T02950195  RH  055%=      5-min Rain = 0
KSW1 131421Z 15003KT 30/19 A30 RMK A01 T02960194  RH  054%=      5-min Rain = 0
KSW1 131422Z 15003KT 30/19 A30 RMK A01 T02960194  RH  054%=      5-min Rain = 0
KSW1 131423Z 13004KT 29/19 A30 RMK A01 T02940194  RH  055%=      5-min Rain = 0
KSW1 131424Z 12005KT 30/19 A30 RMK A01 T02960194  RH  054%=      5-min Rain = 0
KSW1 131425Z 12005KT 30/19 A30 RMK A01 T02970194  RH  054%=      5-min Rain = 0
KSW1 131426Z 12005KT 30/19 A30 RMK A01 T02960194  RH  054%=      5-min Rain = 0
KSW1 131427Z 12006KT 30/19 A30 RMK A01 T02950193  RH  054%=      5-min Rain = 0
KSW1 131428Z 13006KT 30/19 A30 RMK A01 T02950193  RH  054%=      5-min Rain = 0
KSW1 131429Z 12004KT 29/19 A30 RMK A01 T02930192  RH  055%=      5-min Rain = 0
KSW1 131430Z 11007KT 29/19 A30 RMK A01 T02930193  RH  055%=      5-min Rain = 0
KSW1 131431Z 12006KT 29/19 A30 RMK A01 T02940193  RH  054%=      5-min Rain = 0
KSW1 131432Z 12004KT 30/19 A30 RMK A01 T02950194  RH  055%=      5-min Rain = 0
KSW1 131433Z 14006KT 30/20 A30 RMK A01 T02970195  RH  054%=      5-min Rain = 0
KSW1 131434Z 16006KT 30/19 A30 RMK A01 T02990194  RH  053%=      5-min Rain = 0
KSW1 131435Z 16005KT 30/19 A30 RMK A01 T02980194  RH  054%=      5-min Rain = 0
KSW1 131436Z 16004KT 30/19 A30 RMK A01 T02970193  RH  054%=      5-min Rain = 0
KSW1 131437Z 18003KT 29/19 A30 RMK A01 T02940193  RH  054%=      5-min Rain = 0
KSW1 131438Z 15004KT 29/19 A30 RMK A01 T02940193  RH  055%=      5-min Rain = 0
KSW1 131439Z 16004KT 29/19 A30 RMK A01 T02940193  RH  055%=      5-min Rain = 0
KSW1 131440Z 14006KT 30/19 A30 RMK A01 T02950194  RH  055%=      5-min Rain = 0
KSW1 131441Z 11005KT 30/19 A30 RMK A01 T02960194  RH  054%=      5-min Rain = 0
KSW1 131442Z 10005KT 30/20 A30 RMK A01 T02960195  RH  055%=      5-min Rain = 0
KSW1 131443Z 12003KT 30/19 A30 RMK A01 T02960194  RH  054%=      5-min Rain = 0
KSW1 131444Z 10003KT 30/20 A30 RMK A01 T02970195  RH  054%=      5-min Rain = 0
KSW1 131445Z 10003KT 30/20 A30 RMK A01 T02980195  RH  054%=      5-min Rain = 0
KSW1 131446Z 11003KT 30/20 A30 RMK A01 T03000195  RH  053%=      5-min Rain = 0
KSW1 131447Z 12006KT 30/20 A30 RMK A01 T03020195  RH  053%=      5-min Rain = 0
KSW1 131448Z 15005KT 30/20 A30 RMK A01 T03040196  RH  052%=      5-min Rain = 0
KSW1 131449Z 16004KT 30/20 A30 RMK A01 T03040195  RH  052%=      5-min Rain = 0
KSW1 131450Z 21003KT 30/19 A30 RMK A01 T03040194  RH  052%=      5-min Rain = 0
KSW1 131451Z 19003KT 30/19 A30 RMK A01 T03020194  RH  053%=      5-min Rain = 0
KSW1 131452Z 18006KT 30/20 A30 RMK A01 T03000195  RH  053%=      5-min Rain = 0
KSW1 131453Z 18005KT 30/19 A30 RMK A01 T03000194  RH  053%=      5-min Rain = 0
KSW1 131454Z 18004KT 30/19 A30 RMK A01 T02990194  RH  054%=      5-min Rain = 0
KSW1 131455Z 18002KT 30/19 A30 RMK A01 T02970194  RH  054%=      5-min Rain = 0
KSW1 131456Z 17006KT 30/19 A30 RMK A01 T02970194  RH  054%=      5-min Rain = 0
KSW1 131457Z 15004KT 30/19 A30 RMK A01 T02970194  RH  054%=      5-min Rain = 0
KSW1 131458Z 14002KT 30/19 A30 RMK A01 T02980194  RH  054%=      5-min Rain = 0
KSW1 131459Z 10001KT 30/19 A30 RMK A01 T02990194  RH  054%=      5-min Rain = 0
KSW1 131500Z 19001KT 30/20 A30 RMK A01 T03000195  RH  053%=      5-min Rain = 0
KSW1 131501Z 13004KT 30/20 A30 RMK A01 T03020196  RH  053%=      5-min Rain = 0
KSW1 131502Z 12004KT 30/20 A30 RMK A01 T03040195  RH  052%=      5-min Rain = 0
KSW1 131503Z 12004KT 31/20 A30 RMK A01 T03060195  RH  052%=      5-min Rain = 0
KSW1 131504Z 13001KT 31/20 A30 RMK A01 T03060195  RH  052%=      5-min Rain = 0
KSW1 131505Z 25002KT 31/20 A30 RMK A01 T03050195  RH  052%=      5-min Rain = 0
KSW1 131506Z 23002KT 31/19 A30 RMK A01 T03060194  RH  051%=      5-min Rain = 0
KSW1 131507Z 22005KT 31/19 A30 RMK A01 T03060194  RH  051%=      5-min Rain = 0
KSW1 131508Z 19004KT 31/20 A30 RMK A01 T03060195  RH  051%=      5-min Rain = 0
KSW1 131509Z 20006KT 31/20 A30 RMK A01 T03060195  RH  052%=      5-min Rain = 0
KSW1 131510Z 18006KT 31/20 A3001 RMK A01 T03060195  RH  051%=      5-min Rain = 0
KSW1 131511Z 18004KT 31/19 A3001 RMK A01 T03050194  RH  051%=      5-min Rain = 0
KSW1 131512Z 20001KT 30/19 A3001 RMK A01 T03030193  RH  052%=      5-min Rain = 0
KSW1 131513Z 21002KT 30/19 A3001 RMK A01 T03020194  RH  052%=      5-min Rain = 0
KSW1 131514Z 19004KT 30/19 A3001 RMK A01 T03030194  RH  052%=      5-min Rain = 0
KSW1 131515Z 22006KT 30/19 A3001 RMK A01 T03040194  RH  052%=      5-min Rain = 0
KSW1 131516Z 21005KT 31/19 A3001 RMK A01 T03050193  RH  051%=      5-min Rain = 0
KSW1 131517Z 20006KT 31/19 A3001 RMK A01 T03050192  RH  051%=      5-min Rain = 0
KSW1 131518Z 20005KT 31/19 A3001 RMK A01 T03060191  RH  050%=      5-min Rain = 0
KSW1 131519Z 20003KT 31/19 A3001 RMK A01 T03060191  RH  051%=      5-min Rain = 0
KSW1 131520Z 19003KT 30/19 A3001 RMK A01 T03040191  RH  051%=      5-min Rain = 0
KSW1 131521Z 18003KT 30/19 A3001 RMK A01 T03030192  RH  052%=      5-min Rain = 0
KSW1 131522Z 15005KT 30/19 A3001 RMK A01 T03030194  RH  052%=      5-min Rain = 0
KSW1 131523Z 14005KT 31/20 A3001 RMK A01 T03050195  RH  052%=      5-min Rain = 0
KSW1 131524Z 14004KT 31/19 A3001 RMK A01 T03080194  RH  051%=      5-min Rain = 0
KSW1 131525Z 16002KT 31/20 A3001 RMK A01 T03080195  RH  051%=      5-min Rain = 0
KSW1 131526Z 17001KT 31/19 A3001 RMK A01 T03080194  RH  051%=      5-min Rain = 0
KSW1 131527Z 16003KT 31/20 A3001 RMK A01 T03100195  RH  050%=      5-min Rain = 0
KSW1 131528Z 18007KT 31/19 A3001 RMK A01 T03110194  RH  050%=      5-min Rain = 0
KSW1 131529Z 18006KT 31/19 A3001 RMK A01 T03120194  RH  049%=      5-min Rain = 0
KSW1 131530Z 19006KT 31/19 A3001 RMK A01 T03110193  RH  049%=      5-min Rain = 0
KSW1 131531Z 19006KT 31/19 A3001 RMK A01 T03100192  RH  049%=      5-min Rain = 0
KSW1 131532Z 21006KT 31/19 A3001 RMK A01 T03090192  RH  050%=      5-min Rain = 0
KSW1 131533Z 21005KT 31/19 A3001 RMK A01 T03080192  RH  050%=      5-min Rain = 0
KSW1 131534Z 22004KT 31/19 A3001 RMK A01 T03080192  RH  050%=      5-min Rain = 0
KSW1 131535Z 25003KT 31/19 A3001 RMK A01 T03070192  RH  050%=      5-min Rain = 0
KSW1 131536Z 25004KT 31/19 A3001 RMK A01 T03070193  RH  051%=      5-min Rain = 0
KSW1 131537Z 25006KT 31/19 A3001 RMK A01 T03080193  RH  050%=      5-min Rain = 0
KSW1 131538Z 22006KT 31/19 A3001 RMK A01 T03110193  RH  050%=      5-min Rain = 0
KSW1 131539Z 21003KT 31/19 A3001 RMK A01 T03100194  RH  050%=      5-min Rain = 0
KSW1 131540Z 18005KT 31/19 A3001 RMK A01 T03090194  RH  050%=      5-min Rain = 0
KSW1 131541Z 16006KT 31/19 A3001 RMK A01 T03110194  RH  050%=      5-min Rain = 0
KSW1 131542Z 17005KT 31/19 A3001 RMK A01 T03120194  RH  049%=      5-min Rain = 0
KSW1 131543Z 19004KT 31/19 A3001 RMK A01 T03120194  RH  049%=      5-min Rain = 0
KSW1 131544Z 22005KT 31/19 A3001 RMK A01 T03130194  RH  049%=      5-min Rain = 0
KSW1 131545Z 21004KT 31/19 A3001 RMK A01 T03120194  RH  050%=      5-min Rain = 0
KSW1 131546Z 19005KT 31/19 A3001 RMK A01 T03100194  RH  050%=      5-min Rain = 0
KSW1 131547Z 18007KT 31/19 A3001 RMK A01 T03110194  RH  050%=      5-min Rain = 0
KSW1 131548Z 18008KT 31/20 A3001 RMK A01 T03130195  RH  049%=      5-min Rain = 0
KSW1 131549Z 18005KT 31/20 A3001 RMK A01 T03130195  RH  050%=      5-min Rain = 0
KSW1 131550Z 17005KT 31/20 A3001 RMK A01 T03120195  RH  050%=      5-min Rain = 0
KSW1 131551Z 17004KT 31/20 A3001 RMK A01 T03110195  RH  050%=      5-min Rain = 0
KSW1 131552Z 19004KT 31/20 A3001 RMK A01 T03110195  RH  050%=      5-min Rain = 0
KSW1 131553Z 20002KT 31/20 A3001 RMK A01 T03110196  RH  051%=      5-min Rain = 0
KSW1 131554Z 23001KT 31/20 A3001 RMK A01 T03090196  RH  051%=      5-min Rain = 0
KSW1 131555Z 29000KT 31/20 A3001 RMK A01 T03100195  RH  051%=      5-min Rain = 0
KSW1 131556Z 16001KT 31/20 A3001 RMK A01 T03110196  RH  050%=      5-min Rain = 0
KSW1 131557Z 17003KT 31/20 A3001 RMK A01 T03130196  RH  050%=      5-min Rain = 0
KSW1 131558Z 14005KT 32/20 A3001 RMK A01 T03170197  RH  049%=      5-min Rain = 0
KSW1 131559Z 13005KT 32/20 A3001 RMK A01 T03190196  RH  048%=      5-min Rain = 0
KSW1 131600Z 17005KT 32/20 A3001 RMK A01 T03190198  RH  049%=      5-min Rain = 0
KSW1 131601Z 18004KT 32/20 A3001 RMK A01 T03190198  RH  049%=      5-min Rain = 0
KSW1 131602Z 13003KT 32/20 A3001 RMK A01 T03170199  RH  049%=      5-min Rain = 0
KSW1 131603Z 15004KT 32/20 A3001 RMK A01 T03200199  RH  049%=      5-min Rain = 0
KSW1 131604Z 14008KT 32/20 A3001 RMK A01 T03220198  RH  048%=      5-min Rain = 0
KSW1 131605Z 16008KT 32/20 A3001 RMK A01 T03220198  RH  048%=      5-min Rain = 0
KSW1 131606Z 17006KT 32/20 A3001 RMK A01 T03200197  RH  048%=      5-min Rain = 0
KSW1 131607Z 17005KT 32/20 A3001 RMK A01 T03160196  RH  049%=      5-min Rain = 0
KSW1 131608Z 18005KT 32/20 A3001 RMK A01 T03150196  RH  049%=      5-min Rain = 0
KSW1 131609Z 17005KT 32/20 A3001 RMK A01 T03160196  RH  049%=      5-min Rain = 0
KSW1 131610Z 16005KT 32/20 A3001 RMK A01 T03160196  RH  049%=      5-min Rain = 0
KSW1 131611Z 20004KT 32/20 A3001 RMK A01 T03160196  RH  049%=      5-min Rain = 0
KSW1 131612Z 16007KT 32/20 A3001 RMK A01 T03160197  RH  049%=      5-min Rain = 0
KSW1 131613Z 15006KT 32/20 A3001 RMK A01 T03210199  RH  049%=      5-min Rain = 0
KSW1 131614Z 16009KT 33/20 A3001 RMK A01 T03260197  RH  047%=      5-min Rain = 0
KSW1 131615Z 16006KT 32/20 A3002 RMK A01 T03240197  RH  047%=      5-min Rain = 0
KSW1 131616Z 12005KT 32/20 A3002 RMK A01 T03210196  RH  048%=      5-min Rain = 0
KSW1 131617Z 13005KT 32/20 A3002 RMK A01 T03200196  RH  048%=      5-min Rain = 0
KSW1 131618Z 17005KT 32/20 A3002 RMK A01 T03210196  RH  048%=      5-min Rain = 0
KSW1 131619Z 17005KT 32/20 A3002 RMK A01 T03210196  RH  048%=      5-min Rain = 0
KSW1 131620Z 18005KT 32/20 A3002 RMK A01 T03190195  RH  048%=      5-min Rain = 0
KSW1 131621Z 19004KT 32/19 A3002 RMK A01 T03170194  RH  048%=      5-min Rain = 0
KSW1 131622Z 19004KT 31/19 A3002 RMK A01 T03140194  RH  049%=      5-min Rain = 0
KSW1 131623Z 19002KT 31/19 A3002 RMK A01 T03140194  RH  049%=      5-min Rain = 0
KSW1 131624Z 24001KT 31/20 A3002 RMK A01 T03140195  RH  049%=      5-min Rain = 0
KSW1 131625Z 23001KT 32/19 A3001 RMK A01 T03160194  RH  048%=      5-min Rain = 0
KSW1 131626Z 15002G9KT 32/20 A3001 RMK A01 T03170195  RH  048%=      5-min Rain = 0
KSW1 131627Z 15008KT 32/20 A3002 RMK A01 T03210197  RH  048%=      5-min Rain = 0
KSW1 131628Z 15006KT 32/20 A3002 RMK A01 T03240196  RH  047%=      5-min Rain = 0
KSW1 131629Z 14006KT 33/20 A3002 RMK A01 T03250195  RH  046%=      5-min Rain = 0
KSW1 131630Z 12005KT 33/20 A3002 RMK A01 T03250195  RH  046%=      5-min Rain = 0
KSW1 131631Z 13003KT 33/19 A3002 RMK A01 T03250194  RH  046%=      5-min Rain = 0
KSW1 131632Z 13003KT 32/19 A3002 RMK A01 T03240194  RH  046%=      5-min Rain = 0
KSW1 131633Z 11002KT 32/19 A3002 RMK A01 T03230194  RH  047%=      5-min Rain = 0
KSW1 131634Z 14002KT 32/19 A3002 RMK A01 T03240194  RH  046%=      5-min Rain = 0
KSW1 131635Z 16002KT 33/19 A3001 RMK A01 T03250194  RH  046%=      5-min Rain = 0
KSW1 131636Z 13001KT 32/20 A3002 RMK A01 T03240195  RH  047%=      5-min Rain = 0
KSW1 131637Z 20001KT 32/19 A3002 RMK A01 T03240194  RH  046%=      5-min Rain = 0
KSW1 131638Z 17003KT 33/19 A3002 RMK A01 T03260193  RH  045%=      5-min Rain = 0
KSW1 131639Z 14005KT 33/20 A3002 RMK A01 T03280195  RH  045%=      5-min Rain = 0
KSW1 131640Z 16003KT 33/20 A3002 RMK A01 T03290195  RH  045%=      5-min Rain = 0
KSW1 131641Z 17003KT 33/20 A3002 RMK A01 T03260195  RH  046%=      5-min Rain = 0
KSW1 131642Z 10005KT 33/20 A3002 RMK A01 T03260195  RH  046%=      5-min Rain = 0
KSW1 131643Z 07006KT 33/19 A3002 RMK A01 T03290194  RH  045%=      5-min Rain = 0
KSW1 131644Z 07004KT 33/19 A3002 RMK A01 T03300193  RH  045%=      5-min Rain = 0
KSW1 131645Z 05004KT 33/19 A3002 RMK A01 T03290194  RH  045%=      5-min Rain = 0
KSW1 131646Z 07003KT 33/19 A3002 RMK A01 T03320194  RH  044%=      5-min Rain = 0
KSW1 131647Z 16003KT 33/19 A3002 RMK A01 T03340194  RH  044%=      5-min Rain = 0
KSW1 131648Z 20003KT 33/19 A3002 RMK A01 T03340193  RH  044%=      5-min Rain = 0
KSW1 131649Z 20002KT 33/19 A3002 RMK A01 T03330193  RH  044%=      5-min Rain = 0
KSW1 131650Z 16000KT 33/19 A3002 RMK A01 T03340192  RH  043%=      5-min Rain = 0
KSW1 131651Z 19001KT 33/19 A3002 RMK A01 T03340193  RH  044%=      5-min Rain = 0
KSW1 131652Z 14002KT 33/19 A3002 RMK A01 T03340193  RH  043%=      5-min Rain = 0
KSW1 131653Z 14003KT 34/19 A3002 RMK A01 T03360193  RH  043%=      5-min Rain = 0
KSW1 131654Z 17005KT 34/19 A3002 RMK A01 T03380194  RH  043%=      5-min Rain = 0
KSW1 131655Z 15005KT 34/19 A3002 RMK A01 T03400194  RH  042%=      5-min Rain = 0
KSW1 131656Z 17003KT 34/19 A3002 RMK A01 T03380194  RH  043%=      5-min Rain = 0
KSW1 131657Z 18005KT 34/19 A3002 RMK A01 T03380192  RH  042%=      5-min Rain = 0
KSW1 131658Z 18005KT 34/19 A3002 RMK A01 T03350192  RH  043%=      5-min Rain = 0
KSW1 131659Z 18006KT 33/19 A3002 RMK A01 T03320192  RH  044%=      5-min Rain = 0
KSW1 131700Z 20005KT 33/19 A3002 RMK A01 T03310191  RH  044%=      5-min Rain = 0
KSW1 131701Z 19004KT 33/19 A3002 RMK A01 T03310192  RH  044%=      5-min Rain = 0
KSW1 131702Z 19005KT 33/19 A3002 RMK A01 T03320192  RH  044%=      5-min Rain = 0
KSW1 131703Z 17006KT 33/19 A3002 RMK A01 T03330192  RH  043%=      5-min Rain = 0
KSW1 131704Z 19006KT 33/19 A3002 RMK A01 T03320192  RH  044%=      5-min Rain = 0
KSW1 131705Z 19005KT 33/19 A3002 RMK A01 T03300191  RH  044%=      5-min Rain = 0
KSW1 131706Z 18005KT 33/19 A3002 RMK A01 T03300191  RH  044%=      5-min Rain = 0
KSW1 131707Z 17004KT 33/19 A3002 RMK A01 T03280191  RH  044%=      5-min Rain = 0
KSW1 131708Z 17002KT 33/19 A3002 RMK A01 T03270191  RH  045%=      5-min Rain = 0
KSW1 131709Z 16002KT 33/19 A3002 RMK A01 T03270191  RH  044%=      5-min Rain = 0
KSW1 131710Z 14001KT 33/19 A3002 RMK A01 T03280190  RH  044%=      5-min Rain = 0
KSW1 131711Z 23001KT 33/19 A3002 RMK A01 T03300190  RH  044%=      5-min Rain = 0
KSW1 131712Z 25001KT 33/19 A3002 RMK A01 T03310191  RH  044%=      5-min Rain = 0
KSW1 131713Z 35002KT 33/19 A3002 RMK A01 T03300190  RH  044%=      5-min Rain = 0
KSW1 131714Z 17003KT 33/19 A3002 RMK A01 T03290191  RH  044%=      5-min Rain = 0
KSW1 131715Z 16003KT 33/19 A3002 RMK A01 T03300189  RH  044%=      5-min Rain = 0
KSW1 131716Z 16001KT 33/19 A3002 RMK A01 T03300188  RH  043%=      5-min Rain = 0
KSW1 131717Z 03001KT 33/19 A3002 RMK A01 T03310189  RH  043%=      5-min Rain = 0
KSW1 131718Z 02002KT 33/19 A3002 RMK A01 T03310189  RH  043%=      5-min Rain = 0
KSW1 131719Z 03002KT 33/19 A3002 RMK A01 T03300189  RH  043%=      5-min Rain = 0
KSW1 131720Z 05003KT 33/19 A3002 RMK A01 T03310190  RH  043%=      5-min Rain = 0
KSW1 131721Z 07002KT 33/19 A3002 RMK A01 T03340189  RH  043%=      5-min Rain = 0
KSW1 131722Z 10001KT 33/19 A3002 RMK A01 T03340190  RH  043%=      5-min Rain = 0
KSW1 131723Z 15004KT 34/19 A3001 RMK A01 T03360189  RH  042%=      5-min Rain = 0
KSW1 131724Z 17003KT 34/19 A3001 RMK A01 T03370189  RH  042%=      5-min Rain = 0
KSW1 131725Z 17002KT 34/19 A3001 RMK A01 T03370189  RH  042%=      5-min Rain = 0
KSW1 131726Z 24004KT 34/19 A3001 RMK A01 T03390190  RH  042%=      5-min Rain = 0
KSW1 131727Z 26005KT 34/19 A3001 RMK A01 T03410191  RH  041%=      5-min Rain = 0
KSW1 131728Z 27004KT 34/19 A3001 RMK A01 T03420189  RH  041%=      5-min Rain = 0
KSW1 131729Z 25005KT 34/19 A3001 RMK A01 T03380189  RH  041%=      5-min Rain = 0
KSW1 131730Z 27004KT 34/19 A3001 RMK A01 T03380189  RH  042%=      5-min Rain = 0
KSW1 131731Z 28003KT 34/19 A3001 RMK A01 T03370189  RH  042%=      5-min Rain = 0
KSW1 131732Z 24006KT 34/19 A3001 RMK A01 T03360189  RH  042%=      5-min Rain = 0
KSW1 131733Z 24004KT 34/19 A3001 RMK A01 T03370189  RH  042%=      5-min Rain = 0
KSW1 131734Z 27004KT 34/19 A3001 RMK A01 T03390189  RH  041%=      5-min Rain = 0
KSW1 131735Z 23004KT 34/19 A3001 RMK A01 T03390190  RH  041%=      5-min Rain = 0
KSW1 131736Z 19005KT 34/19 A3001 RMK A01 T03400189  RH  041%=      5-min Rain = 0
KSW1 131737Z 18005KT 34/19 A3001 RMK A01 T03410188  RH  040%=      5-min Rain = 0
KSW1 131738Z 16006KT 34/19 A3001 RMK A01 T03410189  RH  041%=      5-min Rain = 0
KSW1 131739Z 16006KT 34/19 A3001 RMK A01 T03430188  RH  040%=      5-min Rain = 0
KSW1 131740Z 15003KT 34/19 A3001 RMK A01 T03420188  RH  040%=      5-min Rain = 0
KSW1 131741Z 18006KT 34/19 A3001 RMK A01 T03410187  RH  040%=      5-min Rain = 0
KSW1 131742Z 16005KT 34/19 A3001 RMK A01 T03430187  RH  040%=      5-min Rain = 0
KSW1 131743Z 15002KT 34/19 A3001 RMK A01 T03400186  RH  040%=      5-min Rain = 0
KSW1 131744Z 18003KT 34/19 A3001 RMK A01 T03400185  RH  040%=      5-min Rain = 0
KSW1 131745Z 19004KT 34/19 A3001 RMK A01 T03420185  RH  040%=      5-min Rain = 0
KSW1 131746Z 19004KT 34/19 A3001 RMK A01 T03420185  RH  040%=      5-min Rain = 0
KSW1 131747Z 18002KT 34/19 A3001 RMK A01 T03400187  RH  040%=      5-min Rain = 0
KSW1 131748Z 11001KT 34/19 A3001 RMK A01 T03390186  RH  041%=      5-min Rain = 0
KSW1 131749Z 14001KT 34/19 A3001 RMK A01 T03400186  RH  040%=      5-min Rain = 0
KSW1 131750Z 24004KT 34/19 A3001 RMK A01 T03430188  RH  040%=      5-min Rain = 0
KSW1 131751Z 26005KT 35/19 A3001 RMK A01 T03460188  RH  039%=      5-min Rain = 0
KSW1 131752Z 26005KT 35/19 A3001 RMK A01 T03470188  RH  039%=      5-min Rain = 0
KSW1 131753Z 26004KT 35/19 A3001 RMK A01 T03470188  RH  039%=      5-min Rain = 0
KSW1 131754Z 26003KT 35/19 A3001 RMK A01 T03470190  RH  040%=      5-min Rain = 0
KSW1 131755Z 27004KT 35/19 A3001 RMK A01 T03500190  RH  039%=      5-min Rain = 0
KSW1 131756Z 28003KT 35/19 A3001 RMK A01 T03500190  RH  039%=      5-min Rain = 0
KSW1 131757Z 22002KT 35/19 A3001 RMK A01 T03480190  RH  040%=      5-min Rain = 0
KSW1 131758Z 19003KT 35/19 A3001 RMK A01 T03480190  RH  039%=      5-min Rain = 0
KSW1 131759Z 13003KT 35/19 A3001 RMK A01 T03480191  RH  040%=      5-min Rain = 0
KSW1 131800Z 09006KT 35/19 A3001 RMK A01 T03490191  RH  039%=      5-min Rain = 0
KSW1 131801Z 08007KT 35/19 A3001 RMK A01 T03500191  RH  039%=      5-min Rain = 0
KSW1 131802Z 09005KT 35/19 A3001 RMK A01 T03510190  RH  039%=      5-min Rain = 0
KSW1 131803Z 06006KT 35/19 A3001 RMK A01 T03510191  RH  039%=      5-min Rain = 0
KSW1 131804Z 06005KT 35/19 A3001 RMK A01 T03520190  RH  039%=      5-min Rain = 0
KSW1 131805Z 06006KT 35/19 A3001 RMK A01 T03500190  RH  039%=      5-min Rain = 0
KSW1 131806Z 12007KT 35/19 A3001 RMK A01 T03500191  RH  039%=      5-min Rain = 0
KSW1 131807Z 13006KT 35/19 A3001 RMK A01 T03520191  RH  039%=      5-min Rain = 0
KSW1 131808Z 13008KT 35/19 A3001 RMK A01 T03520191  RH  039%=      5-min Rain = 0
KSW1 131809Z 12007KT 35/19 A3001 RMK A01 T03530191  RH  039%=      5-min Rain = 0
KSW1 131810Z 14007KT 35/19 A3001 RMK A01 T03530191  RH  039%=      5-min Rain = 0
KSW1 131811Z 13006KT 35/19 A3001 RMK A01 T03500189  RH  039%=      5-min Rain = 0
KSW1 131812Z 14006KT 35/19 A3001 RMK A01 T03470189  RH  039%=      5-min Rain = 0
KSW1 131813Z 15007KT 34/19 A3001 RMK A01 T03440188  RH  040%=      5-min Rain = 0
KSW1 131814Z 16005KT 34/19 A3001 RMK A01 T03440188  RH  040%=      5-min Rain = 0
KSW1 131815Z 14004KT 34/19 A3001 RMK A01 T03440189  RH  040%=      5-min Rain = 0
KSW1 131816Z 15006KT 35/19 A3001 RMK A01 T03470189  RH  039%=      5-min Rain = 0
KSW1 131817Z 16005KT 35/19 A3001 RMK A01 T03500187  RH  038%=      5-min Rain = 0
KSW1 131818Z 18005KT 35/19 A3001 RMK A01 T03510186  RH  038%=      5-min Rain = 0
KSW1 131819Z 16003KT 35/19 A3001 RMK A01 T03500186  RH  038%=      5-min Rain = 0
KSW1 131820Z 09004KT 35/19 A3001 RMK A01 T03510187  RH  038%=      5-min Rain = 0
KSW1 131821Z 07005KT 35/19 A3001 RMK A01 T03530189  RH  038%=      5-min Rain = 0
KSW1 131822Z 07006KT 36/19 A3001 RMK A01 T03560189  RH  037%=      5-min Rain = 0
KSW1 131823Z 08007KT 36/19 A3001 RMK A01 T03560188  RH  037%=      5-min Rain = 0
KSW1 131824Z 07005KT 35/19 A3001 RMK A01 T03520187  RH  038%=      5-min Rain = 0
KSW1 131825Z 06005KT 35/19 A3001 RMK A01 T03500187  RH  038%=      5-min Rain = 0
KSW1 131826Z 08004KT 35/19 A3001 RMK A01 T03520187  RH  038%=      5-min Rain = 0
KSW1 131827Z 08004KT 35/19 A3001 RMK A01 T03520187  RH  038%=      5-min Rain = 0
KSW1 131828Z 07004KT 35/19 A30 RMK A01 T03520188  RH  038%=      5-min Rain = 0
KSW1 131829Z 08006KT 35/19 A30 RMK A01 T03540187  RH  038%=      5-min Rain = 0
KSW1 131830Z 08005KT 35/19 A30 RMK A01 T03510187  RH  038%=      5-min Rain = 0
KSW1 131831Z 09004KT 35/19 A30 RMK A01 T03500187  RH  038%=      5-min Rain = 0
KSW1 131832Z 11004KT 35/19 A30 RMK A01 T03500187  RH  038%=      5-min Rain = 0
KSW1 131833Z 09009KT 35/19 A30 RMK A01 T03530189  RH  038%=      5-min Rain = 0
KSW1 131834Z 07008KT 36/19 A30 RMK A01 T03560190  RH  038%=      5-min Rain = 0
KSW1 131835Z 09007KT 36/19 A30 RMK A01 T03570189  RH  037%=      5-min Rain = 0
KSW1 131836Z 06007KT 36/19 A30 RMK A01 T03550189  RH  038%=      5-min Rain = 0
KSW1 131837Z 09004KT 36/19 A30 RMK A01 T03550189  RH  038%=      5-min Rain = 0
KSW1 131838Z 11010KT 36/19 A30 RMK A01 T03570189  RH  037%=      5-min Rain = 0
KSW1 131839Z 11007KT 36/19 A30 RMK A01 T03580187  RH  037%=      5-min Rain = 0
KSW1 131840Z 07003KT 36/19 A30 RMK A01 T03560187  RH  037%=      5-min Rain = 0
KSW1 131841Z 14003KT 35/19 A30 RMK A01 T03530187  RH  038%=      5-min Rain = 0
KSW1 131842Z 14004KT 36/19 A30 RMK A01 T03550187  RH  037%=      5-min Rain = 0
KSW1 131843Z 15004KT 36/19 A30 RMK A01 T03550188  RH  038%=      5-min Rain = 0
KSW1 131844Z 16002KT 36/19 A30 RMK A01 T03560188  RH  037%=      5-min Rain = 0
KSW1 131845Z 16003KT 36/19 A30 RMK A01 T03580187  RH  037%=      5-min Rain = 0
KSW1 131846Z 15005KT 36/19 A30 RMK A01 T03590188  RH  037%=      5-min Rain = 0
KSW1 131847Z 13003KT 36/19 A30 RMK A01 T03600188  RH  036%=      5-min Rain = 0
KSW1 131848Z 14003KT 36/19 A30 RMK A01 T03590188  RH  037%=      5-min Rain = 0
KSW1 131849Z 15005KT 36/19 A30 RMK A01 T03600191  RH  037%=      5-min Rain = 0
KSW1 131850Z 18002KT 36/19 A30 RMK A01 T03600191  RH  037%=      5-min Rain = 0
KSW1 131851Z 19003KT 36/19 A30 RMK A01 T03570190  RH  037%=      5-min Rain = 0
KSW1 131852Z 35002KT 35/19 A30 RMK A01 T03540190  RH  038%=      5-min Rain = 0
KSW1 131853Z 33002KT 35/19 A30 RMK A01 T03530190  RH  038%=      5-min Rain = 0
KSW1 131854Z 32002KT 35/19 A30 RMK A01 T03530189  RH  038%=      5-min Rain = 0
KSW1 131855Z 08002KT 35/19 A30 RMK A01 T03540190  RH  038%=      5-min Rain = 0
KSW1 131856Z 11008G15KT 36/19 A30 RMK A01 T03570194  RH  038%=      5-min Rain = 0
KSW1 131857Z 09011KT 36/19 A30 RMK A01 T03640194  RH  037%=      5-min Rain = 0
KSW1 131858Z 07008KT 36/19 A30 RMK A01 T03640193  RH  037%=      5-min Rain = 0
KSW1 131859Z 09008KT 36/19 A30 RMK A01 T03630194  RH  037%=      5-min Rain = 0
KSW1 131900Z 08010KT 37/20 A30 RMK A01 T03670195  RH  037%=      5-min Rain = 0
KSW1 131901Z 09009KT 37/19 A30 RMK A01 T03660193  RH  036%=      5-min Rain = 0
KSW1 131902Z 09006KT 36/19 A30 RMK A01 T03620193  RH  037%=      5-min Rain = 0
KSW1 131903Z 08005KT 36/19 A30 RMK A01 T03600192  RH  037%=      5-min Rain = 0
KSW1 131904Z 11004KT 36/19 A30 RMK A01 T03600191  RH  037%=      5-min Rain = 0
KSW1 131905Z 10006KT 36/19 A30 RMK A01 T03570192  RH  038%=      5-min Rain = 0
KSW1 131906Z 09007KT 36/19 A30 RMK A01 T03580190  RH  037%=      5-min Rain = 0
KSW1 131907Z 08005KT 36/19 A30 RMK A01 T03590191  RH  038%=      5-min Rain = 0
KSW1 131908Z 09003KT 36/19 A30 RMK A01 T03600190  RH  037%=      5-min Rain = 0
KSW1 131909Z 01002KT 36/19 A30 RMK A01 T03600190  RH  037%=      5-min Rain = 0
KSW1 131910Z 35002KT 36/19 A30 RMK A01 T03610190  RH  037%=      5-min Rain = 0
KSW1 131911Z 34002KT 36/19 A30 RMK A01 T03600191  RH  037%=      5-min Rain = 0
KSW1 131912Z 34002KT 36/19 A30 RMK A01 T03620193  RH  037%=      5-min Rain = 0
KSW1 131913Z 08004G15KT 37/19 A30 RMK A01 T03670194  RH  036%=      5-min Rain = 0
KSW1 131914Z 13007G18KT 37/19 A30 RMK A01 T03700194  RH  036%=      5-min Rain = 0
KSW1 131915Z 09006KT 37/19 A30 RMK A01 T03680193  RH  036%=      5-min Rain = 0
KSW1 131916Z 09009KT 37/19 A30 RMK A01 T03650192  RH  036%=      5-min Rain = 0
KSW1 131917Z 07007KT 36/19 A30 RMK A01 T03640192  RH  037%=      5-min Rain = 0
KSW1 131918Z 05010KT 37/19 A30 RMK A01 T03660192  RH  036%=      5-min Rain = 0
KSW1 131919Z 02008KT 36/19 A30 RMK A01 T03620190  RH  037%=      5-min Rain = 0
KSW1 131920Z 02003KT 36/19 A30 RMK A01 T03570190  RH  038%=      5-min Rain = 0
KSW1 131921Z 08001KT 36/19 A30 RMK A01 T03550190  RH  038%=      5-min Rain = 0
KSW1 131922Z 15006G11KT 36/19 A30 RMK A01 T03580192  RH  038%=      5-min Rain = 0
KSW1 131923Z 17009KT 36/19 A30 RMK A01 T03640192  RH  037%=      5-min Rain = 0
KSW1 131924Z 17008KT 37/19 A2999 RMK A01 T03650191  RH  036%=      5-min Rain = 0
KSW1 131925Z 16006KT 36/19 A2999 RMK A01 T03630190  RH  036%=      5-min Rain = 0
KSW1 131926Z 12005KT 36/19 A30 RMK A01 T03640190  RH  036%=      5-min Rain = 0
KSW1 131927Z 06006KT 37/19 A30 RMK A01 T03660191  RH  036%=      5-min Rain = 0
KSW1 131928Z 06009KT 37/19 A30 RMK A01 T03670191  RH  036%=      5-min Rain = 0
KSW1 131929Z 09007KT 37/19 A30 RMK A01 T03690190  RH  035%=      5-min Rain = 0
KSW1 131930Z 06008KT 37/19 A2999 RMK A01 T03660188  RH  035%=      5-min Rain = 0
KSW1 131931Z 06009KT 37/19 A30 RMK A01 T03650188  RH  035%=      5-min Rain = 0
KSW1 131932Z 04010KT 37/19 A30 RMK A01 T03680189  RH  035%=      5-min Rain = 0
KSW1 131933Z 03006KT 37/19 A30 RMK A01 T03690189  RH  035%=      5-min Rain = 0
KSW1 131934Z 03009G14KT 36/19 A30 RMK A01 T03620188  RH  036%=      5-min Rain = 0
KSW1 131935Z 04005KT 36/19 A30 RMK A01 T03570188  RH  037%=      5-min Rain = 0
KSW1 131936Z 02004KT 35/19 A2999 RMK A01 T03540188  RH  038%=      5-min Rain = 0
KSW1 131937Z 01004KT 35/19 A2999 RMK A01 T03510188  RH  038%=      5-min Rain = 0
KSW1 131938Z 02005KT 35/19 A2999 RMK A01 T03510189  RH  039%=      5-min Rain = 0
KSW1 131939Z 01004KT 35/19 A2999 RMK A01 T03510189  RH  039%=      5-min Rain = 0
KSW1 131940Z 08005KT 35/19 A2999 RMK A01 T03510190  RH  039%=      5-min Rain = 0
KSW1 131941Z 09007KT 35/19 A2999 RMK A01 T03520189  RH  038%=      5-min Rain = 0
KSW1 131942Z 11008KT 36/19 A2999 RMK A01 T03600190  RH  037%=      5-min Rain = 0
KSW1 131943Z 11011KT 36/19 A2999 RMK A01 T03630188  RH  036%=      5-min Rain = 0
KSW1 131944Z 08006KT 36/19 A2999 RMK A01 T03600187  RH  036%=      5-min Rain = 0
KSW1 131945Z 08005KT 36/19 A2999 RMK A01 T03590186  RH  036%=      5-min Rain = 0
KSW1 131946Z 10009KT 36/19 A2999 RMK A01 T03590187  RH  037%=      5-min Rain = 0
KSW1 131947Z 12006KT 36/19 A2999 RMK A01 T03580188  RH  037%=      5-min Rain = 0
KSW1 131948Z 12005KT 36/19 A2999 RMK A01 T03580188  RH  037%=      5-min Rain = 0
KSW1 131949Z 10003KT 36/19 A2999 RMK A01 T03600189  RH  037%=      5-min Rain = 0
KSW1 131950Z 07001KT 36/19 A2999 RMK A01 T03610188  RH  036%=      5-min Rain = 0
KSW1 131951Z 20005KT 36/19 A2999 RMK A01 T03610190  RH  037%=      5-min Rain = 0
KSW1 131952Z 21003KT 36/19 A2999 RMK A01 T03620190  RH  037%=      5-min Rain = 0
KSW1 131953Z 20005KT 36/19 A2999 RMK A01 T03630190  RH  036%=      5-min Rain = 0
KSW1 131954Z 24002KT 36/19 A2999 RMK A01 T03640190  RH  036%=      5-min Rain = 0
KSW1 131955Z 06001KT 36/19 A2999 RMK A01 T03630190  RH  036%=      5-min Rain = 0
KSW1 131956Z 09006KT 36/19 A2999 RMK A01 T03640191  RH  036%=      5-min Rain = 0
KSW1 131957Z 07006KT 37/19 A2999 RMK A01 T03680191  RH  036%=      5-min Rain = 0
KSW1 131958Z 10004KT 37/19 A2999 RMK A01 T03690191  RH  035%=      5-min Rain = 0
KSW1 131959Z 06007G12KT 37/19 A2999 RMK A01 T03690192  RH  036%=      5-min Rain = 0
KSW1 132000Z 06011KT 37/19 A2999 RMK A01 T03720192  RH  035%=      5-min Rain = 0
KSW1 132001Z 06010KT 37/19 A2999 RMK A01 T03730192  RH  035%=      5-min Rain = 0
KSW1 132002Z 07009KT 37/19 A2999 RMK A01 T03700192  RH  035%=      5-min Rain = 0
KSW1 132003Z 07006KT 37/19 A2999 RMK A01 T03700192  RH  035%=      5-min Rain = 0
KSW1 132004Z 05006KT 37/19 A2999 RMK A01 T03670192  RH  036%=      5-min Rain = 0
KSW1 132005Z 06006KT 37/19 A2999 RMK A01 T03660191  RH  036%=      5-min Rain = 0
KSW1 132006Z 06006KT 36/19 A2999 RMK A01 T03640190  RH  036%=      5-min Rain = 0
KSW1 132007Z 07006KT 36/19 A2999 RMK A01 T03640191  RH  036%=      5-min Rain = 0
KSW1 132008Z 08006KT 37/19 A2999 RMK A01 T03650191  RH  036%=      5-min Rain = 0
KSW1 132009Z 12008KT 37/19 A2999 RMK A01 T03680193  RH  036%=      5-min Rain = 0
KSW1 132010Z 12006KT 37/19 A2999 RMK A01 T03710192  RH  035%=      5-min Rain = 0
KSW1 132011Z 12006KT 37/19 A2999 RMK A01 T03690192  RH  036%=      5-min Rain = 0
KSW1 132012Z 13005KT 37/19 A2999 RMK A01 T03680191  RH  036%=      5-min Rain = 0
KSW1 132013Z 11006KT 37/19 A2999 RMK A01 T03660191  RH  036%=      5-min Rain = 0
KSW1 132014Z 12004KT 36/19 A2998 RMK A01 T03630190  RH  036%=      5-min Rain = 0
KSW1 132015Z 12004KT 36/19 A2998 RMK A01 T03610190  RH  037%=      5-min Rain = 0
KSW1 132016Z 09003KT 36/19 A2998 RMK A01 T03590190  RH  037%=      5-min Rain = 0
KSW1 132017Z 08004KT 36/19 A2998 RMK A01 T03570190  RH  037%=      5-min Rain = 0
KSW1 132018Z 06005KT 36/19 A2998 RMK A01 T03570191  RH  038%=      5-min Rain = 0
KSW1 132019Z 06009KT 36/19 A2998 RMK A01 T03590192  RH  038%=      5-min Rain = 0
KSW1 132020Z 06009KT 36/19 A2998 RMK A01 T03610192  RH  037%=      5-min Rain = 0
KSW1 132021Z 07005KT 36/19 A2998 RMK A01 T03600192  RH  037%=      5-min Rain = 0
KSW1 132022Z 09005KT 36/19 A2998 RMK A01 T03590191  RH  037%=      5-min Rain = 0
KSW1 132023Z 07007KT 36/19 A2998 RMK A01 T03590192  RH  038%=      5-min Rain = 0
KSW1 132024Z 06009KT 36/19 A2998 RMK A01 T03590194  RH  038%=      5-min Rain = 0
KSW1 132025Z 05011KT 36/20 A2998 RMK A01 T03590197  RH  039%=      5-min Rain = 0
KSW1 132026Z 05010KT 36/20 A2998 RMK A01 T03580198  RH  039%=      5-min Rain = 0
KSW1 132027Z 05011KT 36/20 A2998 RMK A01 T03580197  RH  039%=      5-min Rain = 0
KSW1 132028Z 05011KT 36/20 A2998 RMK A01 T03580197  RH  039%=      5-min Rain = 0
KSW1 132029Z 05011KT 36/20 A2998 RMK A01 T03580197  RH  039%=      5-min Rain = 0
KSW1 132030Z 04009KT 36/20 A2998 RMK A01 T03570197  RH  039%=      5-min Rain = 0
KSW1 132031Z 03010KT 36/20 A2998 RMK A01 T03560197  RH  039%=      5-min Rain = 0
KSW1 132032Z 03006KT 36/20 A2998 RMK A01 T03550197  RH  040%=      5-min Rain = 0
KSW1 132033Z 04009KT 36/20 A2998 RMK A01 T03550197  RH  040%=      5-min Rain = 0
KSW1 132034Z 04009KT 36/20 A2998 RMK A01 T03570197  RH  039%=      5-min Rain = 0
KSW1 132035Z 04007KT 36/20 A2998 RMK A01 T03560197  RH  040%=      5-min Rain = 0
KSW1 132036Z 04009KT 36/20 A2998 RMK A01 T03550198  RH  040%=      5-min Rain = 0
KSW1 132037Z 04009KT 36/20 A2998 RMK A01 T03550197  RH  040%=      5-min Rain = 0
KSW1 132038Z 04007KT 35/20 A2998 RMK A01 T03540198  RH  040%=      5-min Rain = 0
KSW1 132039Z 03012KT 35/20 A2998 RMK A01 T03540198  RH  040%=      5-min Rain = 0
KSW1 132040Z 04011KT 36/20 A2998 RMK A01 T03550199  RH  040%=      5-min Rain = 0
KSW1 132041Z 04010KT 36/20 A2998 RMK A01 T03550198  RH  040%=      5-min Rain = 0
KSW1 132042Z 04007KT 35/20 A2998 RMK A01 T03540198  RH  040%=      5-min Rain = 0
KSW1 132043Z 04009KT 35/20 A2998 RMK A01 T03530199  RH  041%=      5-min Rain = 0
KSW1 132044Z 03009KT 35/20 A2998 RMK A01 T03540200  RH  041%=      5-min Rain = 0
KSW1 132045Z 04007G13KT 35/20 A2998 RMK A01 T03540200  RH  040%=      5-min Rain = 0
KSW1 132046Z 05010KT 36/20 A2998 RMK A01 T03550199  RH  040%=      5-min Rain = 0
KSW1 132047Z 05009KT 35/20 A2998 RMK A01 T03530198  RH  040%=      5-min Rain = 0
KSW1 132048Z 06009KT 35/20 A2998 RMK A01 T03540199  RH  040%=      5-min Rain = 0
KSW1 132049Z 05008KT 36/20 A2998 RMK A01 T03550199  RH  040%=      5-min Rain = 0
KSW1 132050Z 05009KT 36/20 A2998 RMK A01 T03550198  RH  040%=      5-min Rain = 0
KSW1 132051Z 05009KT 36/20 A2998 RMK A01 T03550197  RH  040%=      5-min Rain = 0
KSW1 132052Z 05009KT 35/20 A2998 RMK A01 T03540196  RH  040%=      5-min Rain = 0
KSW1 132053Z 04008KT 35/20 A2997 RMK A01 T03530197  RH  040%=      5-min Rain = 0
KSW1 132054Z 04007KT 35/20 A2997 RMK A01 T03520197  RH  040%=      5-min Rain = 0
KSW1 132055Z 04008KT 35/20 A2997 RMK A01 T03540197  RH  040%=      5-min Rain = 0
KSW1 132056Z 04007KT 36/20 A2997 RMK A01 T03580197  RH  039%=      5-min Rain = 0
KSW1 132057Z 05007KT 36/20 A2997 RMK A01 T03600197  RH  039%=      5-min Rain = 0
KSW1 132058Z 06009KT 36/20 A2997 RMK A01 T03610198  RH  039%=      5-min Rain = 0
KSW1 132059Z 05010KT 36/20 A2997 RMK A01 T03640198  RH  038%=      5-min Rain = 0
KSW1 132100Z 06011KT 37/20 A2997 RMK A01 T03660198  RH  038%=      5-min Rain = 0
KSW1 132101Z 06012KT 37/20 A2997 RMK A01 T03650197  RH  037%=      5-min Rain = 0
KSW1 132102Z 06012KT 36/20 A2997 RMK A01 T03620195  RH  038%=      5-min Rain = 0
KSW1 132103Z 05011KT 36/19 A2997 RMK A01 T03580194  RH  038%=      5-min Rain = 0
KSW1 132104Z 06011KT 36/19 A2997 RMK A01 T03550194  RH  039%=      5-min Rain = 0
KSW1 132105Z 07009KT 36/20 A2997 RMK A01 T03550195  RH  039%=      5-min Rain = 0
KSW1 132106Z 06009KT 35/20 A2997 RMK A01 T03540195  RH  039%=      5-min Rain = 0
KSW1 132107Z 06008KT 35/20 A2997 RMK A01 T03530195  RH  039%=      5-min Rain = 0
KSW1 132108Z 06009KT 35/20 A2997 RMK A01 T03520195  RH  040%=      5-min Rain = 0
KSW1 132109Z 05008KT 35/20 A2997 RMK A01 T03520195  RH  040%=      5-min Rain = 0
KSW1 132110Z 05007KT 35/20 A2997 RMK A01 T03540195  RH  039%=      5-min Rain = 0
KSW1 132111Z 06009KT 36/20 A2997 RMK A01 T03580197  RH  039%=      5-min Rain = 0
KSW1 132112Z 07012KT 36/20 A2997 RMK A01 T03630197  RH  038%=      5-min Rain = 0
KSW1 132113Z 07011KT 37/20 A2997 RMK A01 T03650196  RH  037%=      5-min Rain = 0
KSW1 132114Z 07010KT 37/20 A2997 RMK A01 T03670196  RH  037%=      5-min Rain = 0
KSW1 132115Z 06011KT 37/20 A2997 RMK A01 T03700195  RH  036%=      5-min Rain = 0
KSW1 132116Z 07011KT 37/20 A2997 RMK A01 T03710195  RH  036%=      5-min Rain = 0
KSW1 132117Z 06012KT 37/19 A2997 RMK A01 T03700194  RH  036%=      5-min Rain = 0
KSW1 132118Z 07011KT 37/19 A2997 RMK A01 T03690193  RH  036%=      5-min Rain = 0
KSW1 132119Z 08012KT 37/19 A2997 RMK A01 T03690191  RH  036%=      5-min Rain = 0
KSW1 132120Z 09011KT 37/19 A2997 RMK A01 T03670190  RH  036%=      5-min Rain = 0
KSW1 132121Z 08013KT 37/19 A2997 RMK A01 T03680189  RH  035%=      5-min Rain = 0
KSW1 132122Z 06012KT 37/19 A2997 RMK A01 T03710188  RH  034%=      5-min Rain = 0
KSW1 132123Z 07012KT 37/19 A2997 RMK A01 T03710185  RH  034%=      5-min Rain = 0
KSW1 132124Z 09012KT 37/19 A2997 RMK A01 T03700185  RH  034%=      5-min Rain = 0
KSW1 132125Z 08012KT 37/18 A2997 RMK A01 T03710184  RH  034%=      5-min Rain = 0
KSW1 132126Z 08013KT 37/18 A2997 RMK A01 T03730184  RH  033%=      5-min Rain = 0
KSW1 132127Z 08013KT 37/18 A2997 RMK A01 T03700183  RH  033%=      5-min Rain = 0
KSW1 132128Z 07015KT 37/19 A2997 RMK A01 T03660186  RH  035%=      5-min Rain = 0
KSW1 132129Z 08015KT 37/19 A2997 RMK A01 T03700188  RH  035%=      5-min Rain = 0
KSW1 132130Z 07020KT 37/19 A2997 RMK A01 T03710191  RH  035%=      5-min Rain = 0
KSW1 132131Z 06018KT 37/19 A2997 RMK A01 T03650188  RH  035%=      5-min Rain = 0
KSW1 132132Z 07017KT 36/19 A2997 RMK A01 T03600186  RH  036%=      5-min Rain = 0
KSW1 132133Z 07017KT 36/19 A2997 RMK A01 T03590187  RH  036%=      5-min Rain = 0
KSW1 132134Z 06014KT 36/19 A2997 RMK A01 T03580187  RH  037%=      5-min Rain = 0
KSW1 132135Z 07014KT 36/19 A2996 RMK A01 T03620188  RH  036%=      5-min Rain = 0
KSW1 132136Z 07016KT 36/18 A2997 RMK A01 T03640184  RH  035%=      5-min Rain = 0
KSW1 132137Z 08015KT 36/18 A2997 RMK A01 T03610184  RH  035%=      5-min Rain = 0
KSW1 132138Z 08014KT 36/19 A2997 RMK A01 T03620185  RH  035%=      5-min Rain = 0
KSW1 132139Z 08015KT 36/18 A2997 RMK A01 T03620183  RH  035%=      5-min Rain = 0
KSW1 132140Z 08015KT 36/18 A2997 RMK A01 T03610179  RH  034%=      5-min Rain = 0
KSW1 132141Z 08012KT 36/18 A2997 RMK A01 T03610177  RH  034%=      5-min Rain = 0
KSW1 132142Z 07011KT 36/18 A2997 RMK A01 T03610178  RH  034%=      5-min Rain = 0
KSW1 132143Z 07012KT 36/18 A2997 RMK A01 T03600182  RH  035%=      5-min Rain = 0
KSW1 132144Z 08013KT 36/18 A2997 RMK A01 T03570180  RH  035%=      5-min Rain = 0
KSW1 132145Z 08012KT 36/18 A2997 RMK A01 T03550180  RH  036%=      5-min Rain = 0
KSW1 132146Z 07013KT 35/18 A2997 RMK A01 T03540178  RH  035%=      5-min Rain = 0
KSW1 132147Z 08014KT 35/18 A2997 RMK A01 T03520178  RH  036%=      5-min Rain = 0
KSW1 132148Z 08015KT 35/18 A2997 RMK A01 T03480179  RH  037%=      5-min Rain = 0
KSW1 132149Z 07015KT 35/18 A2997 RMK A01 T03460182  RH  038%=      5-min Rain = 0
KSW1 132150Z 08015KT 35/19 A2997 RMK A01 T03450188  RH  040%=      5-min Rain = 0
KSW1 132151Z 08013KT 34/19 A2997 RMK A01 T03420190  RH  041%=      5-min Rain = 0
KSW1 132152Z 08012KT 34/19 A2997 RMK A01 T03400193  RH  042%=      5-min Rain = 0
KSW1 132153Z 07011KT 34/20 A2997 RMK A01 T03400196  RH  043%=      5-min Rain = 0
KSW1 132154Z 06013KT 34/19 A2997 RMK A01 T03410194  RH  042%=      5-min Rain = 0
KSW1 132155Z 07012KT 34/19 A2997 RMK A01 T03420194  RH  042%=      5-min Rain = 0
KSW1 132156Z 07011KT 34/19 A2997 RMK A01 T03410193  RH  042%=      5-min Rain = 0
KSW1 132157Z 07010KT 34/19 A2997 RMK A01 T03410194  RH  042%=      5-min Rain = 0
KSW1 132158Z 08012KT 34/20 A2997 RMK A01 T03410196  RH  042%=      5-min Rain = 0
KSW1 132159Z 07010KT 34/20 A2997 RMK A01 T03410195  RH  042%=      5-min Rain = 0
KSW1 132200Z 07010KT 34/20 A2996 RMK A01 T03400196  RH  043%=      5-min Rain = 0
KSW1 132201Z 08011KT 34/20 A2996 RMK A01 T03410197  RH  043%=      5-min Rain = 0
KSW1 132202Z 08011KT 34/20 A2996 RMK A01 T03420197  RH  043%=      5-min Rain = 0
KSW1 132203Z 08010KT 34/20 A2996 RMK A01 T03410197  RH  043%=      5-min Rain = 0
KSW1 132204Z 08013KT 34/19 A2996 RMK A01 T03420193  RH  042%=      5-min Rain = 0
KSW1 132205Z 08010KT 34/19 A2996 RMK A01 T03420192  RH  041%=      5-min Rain = 0
KSW1 132206Z 08010KT 35/20 A2996 RMK A01 T03450195  RH  041%=      5-min Rain = 0
KSW1 132207Z 08009KT 35/20 A2996 RMK A01 T03470195  RH  041%=      5-min Rain = 0
KSW1 132208Z 06011KT 35/19 A2996 RMK A01 T03490194  RH  040%=      5-min Rain = 0
KSW1 132209Z 06010KT 35/20 A2995 RMK A01 T03490195  RH  040%=      5-min Rain = 0
KSW1 132210Z 07011KT 35/20 A2996 RMK A01 T03490196  RH  041%=      5-min Rain = 0
KSW1 132211Z 06011KT 35/20 A2996 RMK A01 T03480196  RH  041%=      5-min Rain = 0
KSW1 132212Z 06010KT 35/20 A2996 RMK A01 T03450197  RH  042%=      5-min Rain = 0
KSW1 132213Z 07009KT 34/20 A2996 RMK A01 T03440195  RH  042%=      5-min Rain = 0
KSW1 132214Z 05010KT 34/20 A2996 RMK A01 T03440195  RH  042%=      5-min Rain = 0
KSW1 132215Z 05009KT 35/20 A2996 RMK A01 T03450195  RH  041%=      5-min Rain = 0
KSW1 132216Z 06008KT 35/19 A2996 RMK A01 T03460194  RH  041%=      5-min Rain = 0
KSW1 132217Z 05010KT 35/19 A2996 RMK A01 T03490193  RH  040%=      5-min Rain = 0
KSW1 132218Z 06010KT 35/19 A2996 RMK A01 T03500189  RH  039%=      5-min Rain = 0
KSW1 132219Z 05008KT 35/19 A2996 RMK A01 T03510188  RH  038%=      5-min Rain = 0
KSW1 132220Z 05008KT 35/19 A2996 RMK A01 T03520190  RH  039%=      5-min Rain = 0
KSW1 132221Z 05010KT 36/19 A2996 RMK A01 T03570190  RH  037%=      5-min Rain = 0
KSW1 132222Z 05009KT 36/19 A2996 RMK A01 T03600190  RH  037%=      5-min Rain = 0
KSW1 132223Z 06008KT 36/19 A2996 RMK A01 T03600192  RH  037%=      5-min Rain = 0
KSW1 132224Z 06010KT 36/19 A2996 RMK A01 T03630192  RH  037%=      5-min Rain = 0
KSW1 132225Z 05010KT 36/19 A2996 RMK A01 T03630189  RH  036%=      5-min Rain = 0
KSW1 132226Z 05009KT 36/19 A2996 RMK A01 T03600190  RH  037%=      5-min Rain = 0
KSW1 132227Z 04010KT 36/19 A2996 RMK A01 T03590190  RH  037%=      5-min Rain = 0
KSW1 132228Z 03010KT 36/19 A2996 RMK A01 T03580186  RH  036%=      5-min Rain = 0
KSW1 132229Z 04012KT 36/19 A2996 RMK A01 T03570185  RH  036%=      5-min Rain = 0
KSW1 132230Z 04012KT 36/19 A2996 RMK A01 T03560185  RH  036%=      5-min Rain = 0
KSW1 132231Z 04011KT 36/18 A2996 RMK A01 T03550184  RH  036%=      5-min Rain = 0
KSW1 132232Z 05011KT 36/18 A2996 RMK A01 T03550180  RH  036%=      5-min Rain = 0
KSW1 132233Z 05009KT 35/18 A2996 RMK A01 T03540180  RH  036%=      5-min Rain = 0
KSW1 132234Z 04008KT 36/18 A2996 RMK A01 T03560184  RH  036%=      5-min Rain = 0
KSW1 132235Z 05010KT 36/19 A2996 RMK A01 T03580186  RH  036%=      5-min Rain = 0
KSW1 132236Z 05009KT 36/18 A2996 RMK A01 T03570181  RH  035%=      5-min Rain = 0
KSW1 132237Z 04011KT 36/18 A2996 RMK A01 T03550182  RH  036%=      5-min Rain = 0
KSW1 132238Z 05010KT 35/18 A2996 RMK A01 T03540181  RH  036%=      5-min Rain = 0
KSW1 132239Z 06010KT 35/18 A2996 RMK A01 T03540176  RH  035%=      5-min Rain = 0
KSW1 132240Z 05009KT 35/18 A2996 RMK A01 T03540176  RH  035%=      5-min Rain = 0
KSW1 132241Z 05011KT 36/18 A2996 RMK A01 T03560176  RH  035%=      5-min Rain = 0
KSW1 132242Z 05011KT 36/18 A2996 RMK A01 T03560177  RH  035%=      5-min Rain = 0
KSW1 132243Z 03011KT 36/18 A2996 RMK A01 T03560179  RH  035%=      5-min Rain = 0
KSW1 132244Z 02013KT 35/19 A2996 RMK A01 T03540187  RH  037%=      5-min Rain = 0
KSW1 132245Z 02015KT 35/19 A2996 RMK A01 T03470187  RH  039%=      5-min Rain = 0
KSW1 132246Z 03012KT 34/19 A2996 RMK A01 T03420188  RH  040%=      5-min Rain = 0
KSW1 132247Z 02013KT 34/19 A2996 RMK A01 T03410188  RH  041%=      5-min Rain = 0
KSW1 132248Z 02013KT 34/19 A2996 RMK A01 T03420189  RH  041%=      5-min Rain = 0
KSW1 132249Z 02010KT 34/19 A2995 RMK A01 T03420190  RH  041%=      5-min Rain = 0
KSW1 132250Z 02008KT 35/19 A2995 RMK A01 T03450189  RH  040%=      5-min Rain = 0
KSW1 132251Z 02010G15KT 35/19 A2995 RMK A01 T03510189  RH  039%=      5-min Rain = 0
KSW1 132252Z 02011KT 35/19 A2995 RMK A01 T03540190  RH  038%=      5-min Rain = 0
KSW1 132253Z 03010KT 36/19 A2995 RMK A01 T03550189  RH  038%=      5-min Rain = 0
KSW1 132254Z 03009KT 36/19 A2995 RMK A01 T03560189  RH  038%=      5-min Rain = 0
KSW1 132255Z 03010KT 36/19 A2995 RMK A01 T03580191  RH  038%=      5-min Rain = 0
KSW1 132256Z 02011KT 36/19 A2995 RMK A01 T03590189  RH  037%=      5-min Rain = 0
KSW1 132257Z 03010KT 36/19 A2995 RMK A01 T03580189  RH  037%=      5-min Rain = 0
KSW1 132258Z 05010KT 36/19 A2995 RMK A01 T03580189  RH  037%=      5-min Rain = 0
KSW1 132259Z 04010KT 36/19 A2995 RMK A01 T03590187  RH  037%=      5-min Rain = 0
KSW1 132300Z 04009KT 36/19 A2995 RMK A01 T03590187  RH  037%=      5-min Rain = 0
KSW1 132301Z 04011KT 36/19 A2995 RMK A01 T03590187  RH  036%=      5-min Rain = 0
KSW1 132302Z 04010KT 36/19 A2995 RMK A01 T03590186  RH  036%=      5-min Rain = 0
KSW1 132303Z 03010KT 36/19 A2995 RMK A01 T03590187  RH  037%=      5-min Rain = 0
KSW1 132304Z 03010KT 36/19 A2995 RMK A01 T03580186  RH  036%=      5-min Rain = 0
KSW1 132305Z 05012KT 36/18 A2995 RMK A01 T03600184  RH  036%=      5-min Rain = 0
KSW1 132306Z 06008KT 36/18 A2995 RMK A01 T03610180  RH  035%=      5-min Rain = 0
KSW1 132307Z 04007KT 36/18 A2995 RMK A01 T03600180  RH  035%=      5-min Rain = 0
KSW1 132308Z 04009KT 36/18 A2995 RMK A01 T03590183  RH  035%=      5-min Rain = 0
KSW1 132309Z 04012KT 36/19 A2996 RMK A01 T03600187  RH  036%=      5-min Rain = 0
KSW1 132310Z 03011KT 36/19 A2996 RMK A01 T03600191  RH  037%=      5-min Rain = 0
KSW1 132311Z 02009KT 36/20 A2996 RMK A01 T03580196  RH  039%=      5-min Rain = 0
KSW1 132312Z 03011KT 36/20 A2996 RMK A01 T03570195  RH  039%=      5-min Rain = 0
KSW1 132313Z 01012KT 36/19 A2996 RMK A01 T03550192  RH  038%=      5-min Rain = 0
KSW1 132314Z 02011KT 35/19 A2995 RMK A01 T03540193  RH  039%=      5-min Rain = 0
KSW1 132315Z 02008KT 35/19 A2995 RMK A01 T03540192  RH  039%=      5-min Rain = 0
KSW1 132316Z 02009KT 36/19 A2995 RMK A01 T03560192  RH  038%=      5-min Rain = 0
KSW1 132317Z 02010KT 36/19 A2995 RMK A01 T03580191  RH  037%=      5-min Rain = 0
KSW1 132318Z 02010KT 36/19 A2996 RMK A01 T03590191  RH  037%=      5-min Rain = 0
KSW1 132319Z 01010KT 36/19 A2996 RMK A01 T03590189  RH  037%=      5-min Rain = 0
KSW1 132320Z 01009KT 36/19 A2996 RMK A01 T03600189  RH  037%=      5-min Rain = 0
KSW1 132321Z 03010KT 36/19 A2996 RMK A01 T03600188  RH  036%=      5-min Rain = 0
KSW1 132322Z 04010KT 36/19 A2996 RMK A01 T03600188  RH  036%=      5-min Rain = 0
KSW1 132323Z 04012KT 36/19 A2996 RMK A01 T03600187  RH  036%=      5-min Rain = 0
KSW1 132324Z 04012KT 36/18 A2996 RMK A01 T03610184  RH  035%=      5-min Rain = 0
KSW1 132325Z 03010KT 36/18 A2996 RMK A01 T03600183  RH  035%=      5-min Rain = 0
KSW1 132326Z 03009KT 36/18 A2996 RMK A01 T03590184  RH  036%=      5-min Rain = 0
KSW1 132327Z 05010KT 36/19 A2996 RMK A01 T03600186  RH  036%=      5-min Rain = 0
KSW1 132328Z 04009KT 36/19 A2996 RMK A01 T03620186  RH  036%=      5-min Rain = 0
KSW1 132329Z 04011KT 36/18 A2996 RMK A01 T03620184  RH  035%=      5-min Rain = 0
KSW1 132330Z 04008KT 36/18 A2996 RMK A01 T03610183  RH  035%=      5-min Rain = 0
KSW1 132331Z 03009KT 36/19 A2996 RMK A01 T03590185  RH  036%=      5-min Rain = 0
KSW1 132332Z 02011KT 36/19 A2996 RMK A01 T03610191  RH  037%=      5-min Rain = 0
KSW1 132333Z 03012KT 36/19 A2996 RMK A01 T03620194  RH  037%=      5-min Rain = 0
KSW1 132334Z 03012KT 36/19 A2996 RMK A01 T03600194  RH  038%=      5-min Rain = 0
KSW1 132335Z 04012KT 36/19 A2996 RMK A01 T03580194  RH  038%=      5-min Rain = 0
KSW1 132336Z 04011KT 36/20 A2996 RMK A01 T03560197  RH  039%=      5-min Rain = 0
KSW1 132337Z 02009KT 36/20 A2996 RMK A01 T03560196  RH  039%=      5-min Rain = 0
KSW1 132338Z 03009KT 36/20 A2996 RMK A01 T03580195  RH  038%=      5-min Rain = 0
KSW1 132339Z 03009KT 36/19 A2996 RMK A01 T03600194  RH  038%=      5-min Rain = 0
KSW1 132340Z 03007KT 36/19 A2996 RMK A01 T03600194  RH  038%=      5-min Rain = 0
KSW1 132341Z 04007KT 36/19 A2996 RMK A01 T03630193  RH  037%=      5-min Rain = 0
KSW1 132342Z 03007KT 36/19 A2996 RMK A01 T03620190  RH  037%=      5-min Rain = 0
KSW1 132343Z 03010KT 36/19 A2996 RMK A01 T03620191  RH  037%=      5-min Rain = 0
KSW1 132344Z 04009KT 36/19 A2996 RMK A01 T03600189  RH  037%=      5-min Rain = 0
KSW1 132345Z 04009KT 36/19 A2996 RMK A01 T03580189  RH  037%=      5-min Rain = 0
KSW1 132346Z 03010KT 36/19 A2996 RMK A01 T03570189  RH  037%=      5-min Rain = 0
KSW1 132347Z 03009KT 36/19 A2996 RMK A01 T03550190  RH  038%=      5-min Rain = 0
KSW1 132348Z 04010KT 36/19 A2996 RMK A01 T03550191  RH  038%=      5-min Rain = 0
KSW1 132349Z 04010KT 35/19 A2996 RMK A01 T03540189  RH  038%=      5-min Rain = 0
KSW1 132350Z 05008KT 35/19 A2996 RMK A01 T03530188  RH  038%=      5-min Rain = 0
KSW1 132351Z 05009KT 35/19 A2996 RMK A01 T03540189  RH  038%=      5-min Rain = 0
KSW1 132352Z 04008KT 36/19 A2996 RMK A01 T03560187  RH  037%=      5-min Rain = 0
KSW1 132353Z 04007KT 36/19 A2996 RMK A01 T03550187  RH  037%=      5-min Rain = 0
KSW1 132354Z 04009KT 36/19 A2996 RMK A01 T03570187  RH  037%=      5-min Rain = 0
KSW1 132355Z 04008KT 36/18 A2996 RMK A01 T03580184  RH  036%=      5-min Rain = 0
KSW1 132356Z 04010KT 36/18 A2996 RMK A01 T03580184  RH  036%=      5-min Rain = 0
KSW1 132357Z 04011KT 36/18 A2996 RMK A01 T03590184  RH  036%=      5-min Rain = 0
KSW1 132358Z 04009KT 36/18 A2996 RMK A01 T03590184  RH  036%=      5-min Rain = 0
KSW1 132359Z 03008KT 36/18 A2996 RMK A01 T03580183  RH  036%=      5-min Rain = 0
KSW1 140000Z 03009KT 36/18 A2996 RMK A01 T03590183  RH  036%=      5-min Rain = 0
KSW1 140001Z 03008KT 36/18 A2996 RMK A01 T03590184  RH  036%=      5-min Rain = 0
KSW1 140002Z 04009KT 36/19 A2996 RMK A01 T03590185  RH  036%=      5-min Rain = 0
KSW1 140003Z 04012KT 36/18 A2996 RMK A01 T03600184  RH  036%=      5-min Rain = 0
KSW1 140004Z 04010KT 36/18 A2996 RMK A01 T03580183  RH  036%=      5-min Rain = 0
KSW1 140005Z 04010KT 36/18 A2996 RMK A01 T03560184  RH  036%=      5-min Rain = 0
KSW1 140006Z 04008KT 36/18 A2996 RMK A01 T03570184  RH  036%=      5-min Rain = 0
KSW1 140007Z 04008KT 36/18 A2996 RMK A01 T03580184  RH  036%=      5-min Rain = 0
KSW1 140008Z 06010KT 36/18 A2996 RMK A01 T03590184  RH  036%=      5-min Rain = 0
KSW1 140009Z 06009KT 36/18 A2996 RMK A01 T03590183  RH  036%=      5-min Rain = 0
KSW1 140010Z 06008KT 36/18 A2996 RMK A01 T03560183  RH  036%=      5-min Rain = 0
KSW1 140011Z 06008KT 36/18 A2996 RMK A01 T03550184  RH  037%=      5-min Rain = 0
KSW1 140012Z 06008KT 35/18 A2996 RMK A01 T03540184  RH  037%=      5-min Rain = 0
KSW1 140013Z 06009KT 35/18 A2996 RMK A01 T03540182  RH  036%=      5-min Rain = 0
KSW1 140014Z 07009KT 35/18 A2996 RMK A01 T03540180  RH  036%=      5-min Rain = 0
KSW1 140015Z 07008KT 35/18 A2996 RMK A01 T03540181  RH  036%=      5-min Rain = 0
KSW1 140016Z 07007KT 35/18 A2996 RMK A01 T03540181  RH  036%=      5-min Rain = 0
KSW1 140017Z 06007KT 35/18 A2996 RMK A01 T03540181  RH  036%=      5-min Rain = 0
KSW1 140018Z 05008KT 36/18 A2996 RMK A01 T03550181  RH  036%=      5-min Rain = 0
KSW1 140019Z 04008KT 36/18 A2996 RMK A01 T03560181  RH  036%=      5-min Rain = 0
KSW1 140020Z 05008KT 36/18 A2996 RMK A01 T03560184  RH  036%=      5-min Rain = 0
KSW1 140021Z 06012KT 36/19 A2997 RMK A01 T03550190  RH  038%=      5-min Rain = 0
KSW1 140022Z 07010KT 35/19 A2997 RMK A01 T03530193  RH  039%=      5-min Rain = 0
KSW1 140023Z 07014KT 35/20 A2997 RMK A01 T03520195  RH  040%=      5-min Rain = 0
KSW1 140024Z 06015KT 35/20 A2997 RMK A01 T03510197  RH  041%=      5-min Rain = 0
KSW1 140025Z 06016KT 35/20 A2997 RMK A01 T03490198  RH  041%=      5-min Rain = 0
KSW1 140026Z 07014KT 35/20 A2997 RMK A01 T03470198  RH  042%=      5-min Rain = 0
KSW1 140027Z 06015KT 35/20 A2997 RMK A01 T03460198  RH  042%=      5-min Rain = 0
KSW1 140028Z 05014KT 35/20 A2997 RMK A01 T03450198  RH  042%=      5-min Rain = 0
KSW1 140029Z 06015KT 35/20 A2997 RMK A01 T03450198  RH  042%=      5-min Rain = 0
KSW1 140030Z 05013KT 35/20 A2997 RMK A01 T03450198  RH  042%=      5-min Rain = 0
KSW1 140031Z 05015KT 35/20 A2997 RMK A01 T03450199  RH  043%=      5-min Rain = 0
KSW1 140032Z 06015KT 34/20 A2997 RMK A01 T03440199  RH  043%=      5-min Rain = 0
KSW1 140033Z 06015KT 34/20 A2997 RMK A01 T03430200  RH  043%=      5-min Rain = 0
KSW1 140034Z 06016KT 34/20 A2997 RMK A01 T03430200  RH  043%=      5-min Rain = 0
KSW1 140035Z 06013KT 34/20 A2997 RMK A01 T03430201  RH  043%=      5-min Rain = 0
KSW1 140036Z 06014KT 34/20 A2997 RMK A01 T03420201  RH  044%=      5-min Rain = 0
KSW1 140037Z 06011KT 34/20 A2997 RMK A01 T03420202  RH  044%=      5-min Rain = 0
KSW1 140038Z 06014KT 34/20 A2997 RMK A01 T03430202  RH  044%=      5-min Rain = 0
KSW1 140039Z 06014KT 34/20 A2997 RMK A01 T03430201  RH  044%=      5-min Rain = 0
KSW1 140040Z 07012KT 34/20 A2997 RMK A01 T03430202  RH  044%=      5-min Rain = 0
KSW1 140041Z 07016KT 34/20 A2997 RMK A01 T03420201  RH  044%=      5-min Rain = 0
KSW1 140042Z 07015KT 34/20 A2997 RMK A01 T03410200  RH  044%=      5-min Rain = 0
KSW1 140043Z 07014KT 34/20 A2997 RMK A01 T03400201  RH  044%=      5-min Rain = 0
KSW1 140044Z 07014KT 34/20 A2997 RMK A01 T03390201  RH  044%=      5-min Rain = 0
KSW1 140045Z 07014KT 34/20 A2997 RMK A01 T03380201  RH  045%=      5-min Rain = 0
KSW1 140046Z 06014KT 34/20 A2997 RMK A01 T03380201  RH  045%=      5-min Rain = 0
KSW1 140047Z 07013KT 34/20 A2997 RMK A01 T03380201  RH  045%=      5-min Rain = 0
KSW1 140048Z 06014KT 34/20 A2997 RMK A01 T03380202  RH  045%=      5-min Rain = 0
KSW1 140049Z 06012KT 34/20 A2997 RMK A01 T03370202  RH  045%=      5-min Rain = 0
KSW1 140050Z 07011KT 34/20 A2997 RMK A01 T03370203  RH  045%=      5-min Rain = 0
KSW1 140051Z 07013KT 34/20 A2997 RMK A01 T03370203  RH  046%=      5-min Rain = 0
KSW1 140052Z 06013KT 34/20 A2997 RMK A01 T03370204  RH  046%=      5-min Rain = 0
KSW1 140053Z 06012KT 34/20 A2997 RMK A01 T03360204  RH  046%=      5-min Rain = 0
KSW1 140054Z 06013KT 34/21 A2997 RMK A01 T03360205  RH  046%=      5-min Rain = 0
KSW1 140055Z 06011KT 34/21 A2997 RMK A01 T03360205  RH  046%=      5-min Rain = 0
KSW1 140056Z 06010KT 34/21 A2997 RMK A01 T03350206  RH  047%=      5-min Rain = 0
KSW1 140057Z 05012G17KT 34/21 A2997 RMK A01 T03350206  RH  047%=      5-min Rain = 0
KSW1 140058Z 06014KT 33/21 A2997 RMK A01 T03340206  RH  047%=      5-min Rain = 0
KSW1 140059Z 06014KT 33/21 A2997 RMK A01 T03340207  RH  047%=      5-min Rain = 0
KSW1 140100Z 05014KT 33/21 A2997 RMK A01 T03340207  RH  047%=      5-min Rain = 0
KSW1 140101Z 06012KT 33/21 A2997 RMK A01 T03330207  RH  047%=      5-min Rain = 0
KSW1 140102Z 05013KT 33/21 A2997 RMK A01 T03330207  RH  048%=      5-min Rain = 0
KSW1 140103Z 06014KT 33/21 A2997 RMK A01 T03330207  RH  048%=      5-min Rain = 0
KSW1 140104Z 06013KT 33/21 A2997 RMK A01 T03330208  RH  048%=      5-min Rain = 0
KSW1 140105Z 06013KT 33/21 A2997 RMK A01 T03320208  RH  048%=      5-min Rain = 0
KSW1 140106Z 06012KT 33/21 A2997 RMK A01 T03320209  RH  048%=      5-min Rain = 0
KSW1 140107Z 06011KT 33/21 A2997 RMK A01 T03310208  RH  048%=      5-min Rain = 0
KSW1 140108Z 06010KT 33/21 A2997 RMK A01 T03310209  RH  049%=      5-min Rain = 0
KSW1 140109Z 06010KT 33/21 A2997 RMK A01 T03310209  RH  049%=      5-min Rain = 0
KSW1 140110Z 06009KT 33/21 A2997 RMK A01 T03300209  RH  049%=      5-min Rain = 0
KSW1 140111Z 06010KT 33/21 A2997 RMK A01 T03300209  RH  049%=      5-min Rain = 0
KSW1 140112Z 07012KT 33/21 A2997 RMK A01 T03300209  RH  049%=      5-min Rain = 0
KSW1 140113Z 06011KT 33/21 A2997 RMK A01 T03290209  RH  049%=      5-min Rain = 0
KSW1 140114Z 07012KT 33/21 A2997 RMK A01 T03290209  RH  049%=      5-min Rain = 0
KSW1 140115Z 07011KT 33/21 A2997 RMK A01 T03290209  RH  049%=      5-min Rain = 0
KSW1 140116Z 07009KT 33/21 A2997 RMK A01 T03280209  RH  050%=      5-min Rain = 0
KSW1 140117Z 07010KT 33/21 A2997 RMK A01 T03280209  RH  050%=      5-min Rain = 0
KSW1 140118Z 06011KT 33/21 A2997 RMK A01 T03280209  RH  050%=      5-min Rain = 0
KSW1 140119Z 06010KT 33/21 A2997 RMK A01 T03270209  RH  050%=      5-min Rain = 0
KSW1 140120Z 06009KT 33/21 A2997 RMK A01 T03270209  RH  050%=      5-min Rain = 0
KSW1 140121Z 06009KT 33/21 A2997 RMK A01 T03260209  RH  050%=      5-min Rain = 0
KSW1 140122Z 06011KT 33/21 A2997 RMK A01 T03250209  RH  050%=      5-min Rain = 0
KSW1 140123Z 06012KT 33/21 A2997 RMK A01 T03250209  RH  051%=      5-min Rain = 0
KSW1 140124Z 06012KT 33/21 A2997 RMK A01 T03250209  RH  051%=      5-min Rain = 0
KSW1 140125Z 07013KT 33/21 A2997 RMK A01 T03250208  RH  050%=      5-min Rain = 0
KSW1 140126Z 06010KT 33/21 A2997 RMK A01 T03250208  RH  050%=      5-min Rain = 0
KSW1 140127Z 07012KT 32/21 A2997 RMK A01 T03240208  RH  050%=      5-min Rain = 0
KSW1 140128Z 06012KT 32/21 A2997 RMK A01 T03240207  RH  050%=      5-min Rain = 0
KSW1 140129Z 06012KT 32/21 A2997 RMK A01 T03240207  RH  050%=      5-min Rain = 0
KSW1 140130Z 07010KT 32/21 A2997 RMK A01 T03230207  RH  050%=      5-min Rain = 0
KSW1 140131Z 06011KT 32/21 A2997 RMK A01 T03230207  RH  050%=      5-min Rain = 0
KSW1 140132Z 06010KT 32/21 A2997 RMK A01 T03220206  RH  051%=      5-min Rain = 0
KSW1 140133Z 06010KT 32/21 A2997 RMK A01 T03220206  RH  051%=      5-min Rain = 0
KSW1 140134Z 06010KT 32/21 A2997 RMK A01 T03210206  RH  051%=      5-min Rain = 0
KSW1 140135Z 06011KT 32/21 A2997 RMK A01 T03210205  RH  050%=      5-min Rain = 0
KSW1 140136Z 06010KT 32/21 A2997 RMK A01 T03210205  RH  050%=      5-min Rain = 0
KSW1 140137Z 06012KT 32/20 A2998 RMK A01 T03200204  RH  050%=      5-min Rain = 0
KSW1 140138Z 06010KT 32/20 A2998 RMK A01 T03200203  RH  050%=      5-min Rain = 0
KSW1 140139Z 06011KT 32/20 A2998 RMK A01 T03200203  RH  050%=      5-min Rain = 0
KSW1 140140Z 06010KT 32/20 A2998 RMK A01 T03200202  RH  050%=      5-min Rain = 0
KSW1 140141Z 07010KT 32/20 A2998 RMK A01 T03200202  RH  050%=      5-min Rain = 0
KSW1 140142Z 06009KT 32/20 A2998 RMK A01 T03190201  RH  050%=      5-min Rain = 0
KSW1 140143Z 07009KT 32/20 A2998 RMK A01 T03190201  RH  050%=      5-min Rain = 0
KSW1 140144Z 07009KT 32/20 A2998 RMK A01 T03190200  RH  050%=      5-min Rain = 0
KSW1 140145Z 07009KT 32/20 A2998 RMK A01 T03190200  RH  049%=      5-min Rain = 0
KSW1 140146Z 07008KT 32/20 A2998 RMK A01 T03190200  RH  049%=      5-min Rain = 0
KSW1 140147Z 07008KT 32/20 A2999 RMK A01 T03180199  RH  049%=      5-min Rain = 0
KSW1 140148Z 06008KT 32/20 A2999 RMK A01 T03180199  RH  049%=      5-min Rain = 0
KSW1 140149Z 06007KT 32/20 A2999 RMK A01 T03170199  RH  050%=      5-min Rain = 0
KSW1 140150Z 07007KT 32/20 A2999 RMK A01 T03160198  RH  050%=      5-min Rain = 0
KSW1 140151Z 07007KT 32/20 A2999 RMK A01 T03160198  RH  050%=      5-min Rain = 0
KSW1 140152Z 07007KT 32/20 A2999 RMK A01 T03160198  RH  050%=      5-min Rain = 0
KSW1 140153Z 07008KT 32/20 A2999 RMK A01 T03150198  RH  050%=      5-min Rain = 0
KSW1 140154Z 07007KT 31/20 A2999 RMK A01 T03140197  RH  050%=      5-min Rain = 0
KSW1 140155Z 07007KT 31/20 A2999 RMK A01 T03140197  RH  050%=      5-min Rain = 0
KSW1 140156Z 07007KT 31/20 A2999 RMK A01 T03130197  RH  050%=      5-min Rain = 0
KSW1 140157Z 07008KT 31/20 A2999 RMK A01 T03130197  RH  050%=      5-min Rain = 0
KSW1 140158Z 06008KT 31/20 A2999 RMK A01 T03130197  RH  050%=      5-min Rain = 0
KSW1 140159Z 06008KT 31/20 A2999 RMK A01 T03130196  RH  050%=      5-min Rain = 0
KSW1 140200Z 06008KT 31/20 A2999 RMK A01 T03130196  RH  050%=      5-min Rain = 0
KSW1 140201Z 06007KT 31/20 A2999 RMK A01 T03120195  RH  050%=      5-min Rain = 0
KSW1 140202Z 05008KT 31/20 A2999 RMK A01 T03120195  RH  050%=      5-min Rain = 0
KSW1 140203Z 05008KT 31/19 A2999 RMK A01 T03110194  RH  050%=      5-min Rain = 0
KSW1 140204Z 06008KT 31/19 A2999 RMK A01 T03110194  RH  050%=      5-min Rain = 0
KSW1 140205Z 06008KT 31/19 A30 RMK A01 T03110193  RH  050%=      5-min Rain = 0
KSW1 140206Z 06007KT 31/19 A30 RMK A01 T03110193  RH  050%=      5-min Rain = 0
KSW1 140207Z 06008KT 31/19 A30 RMK A01 T03100193  RH  050%=      5-min Rain = 0
KSW1 140208Z 06008KT 31/19 A30 RMK A01 T03100192  RH  050%=      5-min Rain = 0
KSW1 140209Z 06008KT 31/19 A30 RMK A01 T03100192  RH  050%=      5-min Rain = 0
KSW1 140210Z 06008KT 31/19 A30 RMK A01 T03100192  RH  050%=      5-min Rain = 0
KSW1 140211Z 06008KT 31/19 A30 RMK A01 T03100192  RH  050%=      5-min Rain = 0
KSW1 140212Z 06008KT 31/19 A30 RMK A01 T03090192  RH  049%=      5-min Rain = 0
KSW1 140213Z 06008KT 31/19 A30 RMK A01 T03090191  RH  049%=      5-min Rain = 0
KSW1 140214Z 06008KT 31/19 A30 RMK A01 T03090191  RH  049%=      5-min Rain = 0
KSW1 140215Z 06008KT 31/19 A30 RMK A01 T03090191  RH  049%=      5-min Rain = 0
KSW1 140216Z 05008KT 31/19 A30 RMK A01 T03090191  RH  049%=      5-min Rain = 0
KSW1 140217Z 06007KT 31/19 A30 RMK A01 T03090191  RH  049%=      5-min Rain = 0
KSW1 140218Z 05008KT 31/19 A30 RMK A01 T03090191  RH  049%=      5-min Rain = 0
KSW1 140219Z 05008KT 31/19 A30 RMK A01 T03090191  RH  049%=      5-min Rain = 0
KSW1 140220Z 05007KT 31/19 A30 RMK A01 T03090191  RH  050%=      5-min Rain = 0
KSW1 140221Z 05008KT 31/19 A30 RMK A01 T03080191  RH  050%=      5-min Rain = 0
KSW1 140222Z 06008KT 31/19 A30 RMK A01 T03080191  RH  050%=      5-min Rain = 0
KSW1 140223Z 05008KT 31/19 A30 RMK A01 T03080191  RH  050%=      5-min Rain = 0
KSW1 140224Z 06008KT 31/19 A30 RMK A01 T03080191  RH  050%=      5-min Rain = 0
KSW1 140225Z 06008KT 31/19 A30 RMK A01 T03070190  RH  050%=      5-min Rain = 0
KSW1 140226Z 06008KT 31/19 A30 RMK A01 T03070191  RH  050%=      5-min Rain = 0
KSW1 140227Z 06007KT 31/19 A30 RMK A01 T03070191  RH  050%=      5-min Rain = 0
KSW1 140228Z 06008KT 31/19 A30 RMK A01 T03070191  RH  050%=      5-min Rain = 0
KSW1 140229Z 06007KT 31/19 A30 RMK A01 T03060191  RH  050%=      5-min Rain = 0
KSW1 140230Z 06008KT 31/19 A30 RMK A01 T03060191  RH  050%=      5-min Rain = 0
KSW1 140231Z 06007KT 31/19 A3001 RMK A01 T03060191  RH  050%=      5-min Rain = 0
KSW1 140232Z 06007KT 31/19 A3001 RMK A01 T03060192  RH  051%=      5-min Rain = 0
KSW1 140233Z 05008KT 31/19 A3001 RMK A01 T03050192  RH  051%=      5-min Rain = 0
KSW1 140234Z 06008KT 31/19 A3001 RMK A01 T03050192  RH  051%=      5-min Rain = 0
KSW1 140235Z 05009KT 31/19 A3001 RMK A01 T03050192  RH  051%=      5-min Rain = 0
KSW1 140236Z 05009KT 31/19 A3001 RMK A01 T03050193  RH  051%=      5-min Rain = 0
KSW1 140237Z 05009KT 31/19 A3001 RMK A01 T03050193  RH  051%=      5-min Rain = 0
KSW1 140238Z 05009KT 31/19 A3001 RMK A01 T03060194  RH  051%=      5-min Rain = 0
KSW1 140239Z 05009KT 31/20 A3001 RMK A01 T03060195  RH  051%=      5-min Rain = 0
KSW1 140240Z 05009KT 31/20 A3001 RMK A01 T03060195  RH  051%=      5-min Rain = 0
KSW1 140241Z 05009KT 31/20 A3001 RMK A01 T03070195  RH  052%=      5-min Rain = 0
KSW1 140242Z 05008KT 31/20 A3001 RMK A01 T03070196  RH  052%=      5-min Rain = 0
KSW1 140243Z 06009KT 31/20 A3002 RMK A01 T03070196  RH  052%=      5-min Rain = 0
KSW1 140244Z 06010KT 31/20 A3001 RMK A01 T03070197  RH  052%=      5-min Rain = 0
KSW1 140245Z 06009KT 31/20 A3002 RMK A01 T03070198  RH  052%=      5-min Rain = 0
KSW1 140246Z 06009KT 31/20 A3002 RMK A01 T03070198  RH  052%=      5-min Rain = 0
KSW1 140247Z 06010KT 31/20 A3002 RMK A01 T03070198  RH  052%=      5-min Rain = 0
KSW1 140248Z 06011KT 31/20 A3002 RMK A01 T03070199  RH  053%=      5-min Rain = 0
KSW1 140249Z 05009KT 31/20 A3002 RMK A01 T03070199  RH  053%=      5-min Rain = 0
KSW1 140250Z 06010KT 31/20 A3002 RMK A01 T03070199  RH  053%=      5-min Rain = 0
KSW1 140251Z 05010KT 31/20 A3002 RMK A01 T03070200  RH  053%=      5-min Rain = 0
KSW1 140252Z 05009KT 31/20 A3002 RMK A01 T03070200  RH  053%=      5-min Rain = 0
KSW1 140253Z 05010KT 31/20 A3002 RMK A01 T03070201  RH  053%=      5-min Rain = 0
KSW1 140254Z 05008KT 31/20 A3002 RMK A01 T03070201  RH  053%=      5-min Rain = 0
KSW1 140255Z 05008KT 31/20 A3002 RMK A01 T03060201  RH  053%=      5-min Rain = 0
KSW1 140256Z 05010KT 31/20 A3002 RMK A01 T03060202  RH  054%=      5-min Rain = 0
KSW1 140257Z 05010KT 31/20 A3002 RMK A01 T03060202  RH  054%=      5-min Rain = 0
KSW1 140258Z 05009KT 31/20 A3002 RMK A01 T03060202  RH  054%=      5-min Rain = 0
KSW1 140259Z 05009KT 31/20 A3002 RMK A01 T03060202  RH  054%=      5-min Rain = 0
KSW1 140300Z 05010KT 31/20 A3002 RMK A01 T03060202  RH  054%=      5-min Rain = 0
KSW1 140301Z 05010KT 31/20 A3002 RMK A01 T03060202  RH  054%=      5-min Rain = 0
KSW1 140302Z 05009KT 31/20 A3002 RMK A01 T03060203  RH  054%=      5-min Rain = 0
KSW1 140303Z 05009KT 31/20 A3002 RMK A01 T03060203  RH  054%=      5-min Rain = 0
KSW1 140304Z 05009KT 31/20 A3002 RMK A01 T03060203  RH  054%=      5-min Rain = 0
KSW1 140305Z 05009KT 31/20 A3002 RMK A01 T03050203  RH  054%=      5-min Rain = 0
KSW1 140306Z 05009KT 31/20 A3002 RMK A01 T03050203  RH  054%=      5-min Rain = 0
KSW1 140307Z 06009KT 31/20 A3002 RMK A01 T03050203  RH  054%=      5-min Rain = 0
KSW1 140308Z 05009KT 31/20 A3002 RMK A01 T03050203  RH  054%=      5-min Rain = 0
KSW1 140309Z 05009KT 31/20 A3002 RMK A01 T03050203  RH  054%=      5-min Rain = 0
KSW1 140310Z 05009KT 31/20 A3002 RMK A01 T03050203  RH  055%=      5-min Rain = 0
KSW1 140311Z 05010KT 31/20 A3003 RMK A01 T03050204  RH  055%=      5-min Rain = 0
KSW1 140312Z 05010KT 31/20 A3003 RMK A01 T03050204  RH  055%=      5-min Rain = 0
KSW1 140313Z 05010KT 31/20 A3003 RMK A01 T03050204  RH  055%=      5-min Rain = 0
KSW1 140314Z 05010KT 31/20 A3003 RMK A01 T03050204  RH  055%=      5-min Rain = 0
KSW1 140315Z 05009KT 31/20 A3003 RMK A01 T03050204  RH  055%=      5-min Rain = 0
KSW1 140316Z 05010KT 31/20 A3003 RMK A01 T03050204  RH  055%=      5-min Rain = 0
KSW1 140317Z 05010KT 31/20 A3003 RMK A01 T03050204  RH  055%=      5-min Rain = 0
KSW1 140318Z 05010KT 31/21 A3003 RMK A01 T03060205  RH  055%=      5-min Rain = 0
KSW1 140319Z 05009KT 31/21 A3003 RMK A01 T03060205  RH  055%=      5-min Rain = 0
KSW1 140320Z 05009KT 31/21 A3003 RMK A01 T03060205  RH  055%=      5-min Rain = 0
KSW1 140321Z 05009KT 31/21 A3003 RMK A01 T03060205  RH  055%=      5-min Rain = 0
KSW1 140322Z 05009KT 31/21 A3003 RMK A01 T03050205  RH  055%=      5-min Rain = 0
KSW1 140323Z 05011KT 31/21 A3003 RMK A01 T03050206  RH  055%=      5-min Rain = 0
KSW1 140324Z 05009KT 31/21 A3003 RMK A01 T03050206  RH  055%=      5-min Rain = 0
KSW1 140325Z 05010KT 31/21 A3003 RMK A01 T03050206  RH  056%=      5-min Rain = 0
KSW1 140326Z 05009KT 30/21 A3004 RMK A01 T03040206  RH  056%=      5-min Rain = 0
KSW1 140327Z 06011KT 30/21 A3004 RMK A01 T03040207  RH  056%=      5-min Rain = 0
KSW1 140328Z 06012KT 30/21 A3004 RMK A01 T03040207  RH  056%=      5-min Rain = 0
KSW1 140329Z 06011KT 30/21 A3004 RMK A01 T03040207  RH  056%=      5-min Rain = 0
KSW1 140330Z 05012KT 30/21 A3004 RMK A01 T03040208  RH  056%=      5-min Rain = 0
KSW1 140331Z 05013KT 30/21 A3004 RMK A01 T03040208  RH  057%=      5-min Rain = 0
KSW1 140332Z 05012KT 30/21 A3004 RMK A01 T03040209  RH  057%=      5-min Rain = 0
KSW1 140333Z 05013KT 30/21 A3004 RMK A01 T03040209  RH  057%=      5-min Rain = 0
KSW1 140334Z 05012KT 30/21 A3004 RMK A01 T03040209  RH  057%=      5-min Rain = 0
KSW1 140335Z 05012KT 30/21 A3004 RMK A01 T03040209  RH  057%=      5-min Rain = 0
KSW1 140336Z 05012KT 30/21 A3004 RMK A01 T03040210  RH  057%=      5-min Rain = 0
KSW1 140337Z 06012KT 30/21 A3004 RMK A01 T03040210  RH  057%=      5-min Rain = 0
KSW1 140338Z 06014KT 30/21 A3004 RMK A01 T03030210  RH  057%=      5-min Rain = 0
KSW1 140339Z 05011KT 30/21 A3004 RMK A01 T03030210  RH  058%=      5-min Rain = 0
KSW1 140340Z 06011KT 30/21 A3004 RMK A01 T03030211  RH  058%=      5-min Rain = 0
KSW1 140341Z 06011KT 30/21 A3004 RMK A01 T03030211  RH  058%=      5-min Rain = 0
KSW1 140342Z 06010KT 30/21 A3004 RMK A01 T03030211  RH  058%=      5-min Rain = 0
KSW1 140343Z 05011KT 30/21 A3004 RMK A01 T03020211  RH  058%=      5-min Rain = 0
KSW1 140344Z 05010KT 30/21 A3004 RMK A01 T03020211  RH  058%=      5-min Rain = 0
KSW1 140345Z 05010KT 30/21 A3004 RMK A01 T03020211  RH  058%=      5-min Rain = 0
KSW1 140346Z 05009KT 30/21 A3004 RMK A01 T03020211  RH  058%=      5-min Rain = 0
KSW1 140347Z 05010KT 30/21 A3005 RMK A01 T03010211  RH  058%=      5-min Rain = 0
KSW1 140348Z 05011KT 30/21 A3005 RMK A01 T03010211  RH  059%=      5-min Rain = 0
KSW1 140349Z 05012KT 30/21 A3005 RMK A01 T03010211  RH  059%=      5-min Rain = 0
KSW1 140350Z 05012KT 30/21 A3005 RMK A01 T03010211  RH  059%=      5-min Rain = 0
KSW1 140351Z 05014KT 30/21 A3005 RMK A01 T03010211  RH  059%=      5-min Rain = 0
KSW1 140352Z 05013KT 30/21 A3005 RMK A01 T03010211  RH  058%=      5-min Rain = 0
KSW1 140353Z 05012KT 30/21 A3004 RMK A01 T03020211  RH  058%=      5-min Rain = 0
KSW1 140354Z 05012KT 30/21 A3004 RMK A01 T03020211  RH  058%=      5-min Rain = 0
KSW1 140355Z 05011KT 30/21 A3004 RMK A01 T03020211  RH  058%=      5-min Rain = 0
KSW1 140356Z 06013KT 30/21 A3004 RMK A01 T03010211  RH  058%=      5-min Rain = 0
KSW1 140357Z 06013KT 30/21 A3004 RMK A01 T03010211  RH  058%=      5-min Rain = 0
KSW1 140358Z 05012KT 30/21 A3005 RMK A01 T03010211  RH  058%=      5-min Rain = 0
KSW1 140359Z 06012KT 30/21 A3005 RMK A01 T03010210  RH  058%=      5-min Rain = 0
KSW1 140400Z 05012KT 30/21 A3005 RMK A01 T03010211  RH  059%=      5-min Rain = 0
KSW1 140401Z 06012KT 30/21 A3005 RMK A01 T03000210  RH  059%=      5-min Rain = 0
KSW1 140402Z 06011KT 30/21 A3005 RMK A01 T03000210  RH  059%=      5-min Rain = 0
KSW1 140403Z 06012KT 30/21 A3005 RMK A01 T03000210  RH  059%=      5-min Rain = 0
KSW1 140404Z 05012KT 30/21 A3005 RMK A01 T03000210  RH  059%=      5-min Rain = 0
KSW1 140405Z 06012KT 30/21 A3005 RMK A01 T03000210  RH  059%=      5-min Rain = 0
KSW1 140406Z 06011KT 30/21 A3005 RMK A01 T02990210  RH  059%=      5-min Rain = 0
KSW1 140407Z 06013KT 30/21 A3005 RMK A01 T02990210  RH  059%=      5-min Rain = 0
KSW1 140408Z 05012KT 30/21 A3005 RMK A01 T02990209  RH  059%=      5-min Rain = 0
KSW1 140409Z 06011KT 30/21 A3005 RMK A01 T02990209  RH  059%=      5-min Rain = 0
KSW1 140410Z 05012KT 30/21 A3005 RMK A01 T02990209  RH  059%=      5-min Rain = 0
KSW1 140411Z 05011KT 30/21 A3005 RMK A01 T02990209  RH  059%=      5-min Rain = 0
KSW1 140412Z 05011KT 30/21 A3005 RMK A01 T02980209  RH  059%=      5-min Rain = 0
KSW1 140413Z 05010KT 30/21 A3005 RMK A01 T02980209  RH  059%=      5-min Rain = 0
KSW1 140414Z 05011KT 30/21 A3005 RMK A01 T02980209  RH  059%=      5-min Rain = 0
KSW1 140415Z 05013KT 30/21 A3005 RMK A01 T02980209  RH  059%=      5-min Rain = 0
KSW1 140416Z 05012KT 30/21 A3005 RMK A01 T02980209  RH  059%=      5-min Rain = 0
KSW1 140417Z 05011KT 30/21 A3005 RMK A01 T02980209  RH  059%=      5-min Rain = 0
KSW1 140418Z 05011KT 30/21 A3005 RMK A01 T02980209  RH  059%=      5-min Rain = 0
KSW1 140419Z 05010KT 30/21 A3005 RMK A01 T02970209  RH  059%=      5-min Rain = 0
KSW1 140420Z 05010KT 30/21 A3005 RMK A01 T02980210  RH  059%=      5-min Rain = 0
KSW1 140421Z 05009KT 30/21 A3005 RMK A01 T02970209  RH  059%=      5-min Rain = 0
KSW1 140422Z 05010KT 30/21 A3005 RMK A01 T02970209  RH  059%=      5-min Rain = 0
KSW1 140423Z 05011KT 30/21 A3005 RMK A01 T02970209  RH  059%=      5-min Rain = 0
KSW1 140424Z 05010KT 30/21 A3006 RMK A01 T02970210  RH  060%=      5-min Rain = 0
KSW1 140425Z 05011KT 30/21 A3006 RMK A01 T02970210  RH  060%=      5-min Rain = 0
KSW1 140426Z 05009KT 30/21 A3006 RMK A01 T02970210  RH  060%=      5-min Rain = 0
KSW1 140427Z 05010KT 30/21 A3006 RMK A01 T02960209  RH  060%=      5-min Rain = 0
KSW1 140428Z 05011KT 30/21 A3006 RMK A01 T02960210  RH  060%=      5-min Rain = 0
KSW1 140429Z 05010KT 30/21 A3005 RMK A01 T02960210  RH  060%=      5-min Rain = 0
KSW1 140430Z 05010KT 30/21 A3005 RMK A01 T02960210  RH  060%=      5-min Rain = 0
KSW1 140431Z 05012KT 30/21 A3005 RMK A01 T02960210  RH  060%=      5-min Rain = 0
KSW1 140432Z 05012KT 30/21 A3005 RMK A01 T02960210  RH  060%=      5-min Rain = 0
KSW1 140433Z 06009KT 30/21 A3005 RMK A01 T02960210  RH  060%=      5-min Rain = 0
KSW1 140434Z 06011KT 30/21 A3005 RMK A01 T02950209  RH  060%=      5-min Rain = 0
KSW1 140435Z 06011KT 30/21 A3005 RMK A01 T02950209  RH  060%=      5-min Rain = 0
KSW1 140436Z 06011KT 30/21 A3005 RMK A01 T02950210  RH  060%=      5-min Rain = 0
KSW1 140437Z 06010KT 30/21 A3005 RMK A01 T02950210  RH  060%=      5-min Rain = 0
KSW1 140438Z 06011KT 29/21 A3005 RMK A01 T02940209  RH  060%=      5-min Rain = 0
KSW1 140439Z 06010KT 29/21 A3005 RMK A01 T02940210  RH  060%=      5-min Rain = 0
KSW1 140440Z 06010KT 29/21 A3005 RMK A01 T02930209  RH  060%=      5-min Rain = 0
KSW1 140441Z 06010KT 29/21 A3005 RMK A01 T02930209  RH  061%=      5-min Rain = 0
KSW1 140442Z 06010KT 29/21 A3005 RMK A01 T02930209  RH  061%=      5-min Rain = 0
KSW1 140443Z 06010KT 29/21 A3005 RMK A01 T02920209  RH  061%=      5-min Rain = 0
KSW1 140444Z 05010KT 29/21 A3005 RMK A01 T02920209  RH  061%=      5-min Rain = 0
KSW1 140445Z 06010KT 29/21 A3005 RMK A01 T02920209  RH  061%=      5-min Rain = 0
KSW1 140446Z 06011KT 29/21 A3005 RMK A01 T02920209  RH  061%=      5-min Rain = 0
KSW1 140447Z 05011KT 29/21 A3005 RMK A01 T02920209  RH  061%=      5-min Rain = 0
KSW1 140448Z 06011KT 29/21 A3005 RMK A01 T02910209  RH  061%=      5-min Rain = 0
KSW1 140449Z 06011KT 29/21 A3005 RMK A01 T02910209  RH  061%=      5-min Rain = 0
KSW1 140450Z 06011KT 29/21 A3005 RMK A01 T02910209  RH  061%=      5-min Rain = 0
KSW1 140451Z 06011KT 29/21 A3005 RMK A01 T02910208  RH  061%=      5-min Rain = 0
KSW1 140452Z 06010KT 29/21 A3005 RMK A01 T02910208  RH  061%=      5-min Rain = 0
KSW1 140453Z 06010KT 29/21 A3005 RMK A01 T02910209  RH  061%=      5-min Rain = 0
KSW1 140454Z 05009KT 29/21 A3005 RMK A01 T02900209  RH  061%=      5-min Rain = 0
KSW1 140455Z 05011KT 29/21 A3005 RMK A01 T02900208  RH  061%=      5-min Rain = 0
KSW1 140456Z 06010KT 29/21 A3005 RMK A01 T02890208  RH  062%=      5-min Rain = 0
KSW1 140457Z 06009KT 29/21 A3005 RMK A01 T02890208  RH  062%=      5-min Rain = 0
KSW1 140458Z 06010KT 29/21 A3005 RMK A01 T02890208  RH  062%=      5-min Rain = 0
KSW1 140459Z 06010KT 29/21 A3005 RMK A01 T02890208  RH  062%=      5-min Rain = 0

Page generated in 0.2455 seconds.